Data for 04/04/2010

Time Sea-Level Adjusted Pressure Absolute Pressure Temperature Relative Humidity Dew Point Precipitation   
(mb) (inHg) (mb) (inHg) (C) (F) (%) (C) (F) (mm) (in)
00:01 1012 29.88 841 24.83 -6.1 21.1 75 -9.8 14.4 -5.631 -0.222
00:02 1012 29.88 841 24.83 -6.1 21 75 -9.8 14.3 -5.682 -0.224
00:03 1012 29.88 841 24.83 -6.2 20.9 75 -9.9 14.2 -5.721 -0.225
00:04 1012 29.88 841 24.83 -6.2 20.8 76 -9.8 14.3 -5.767 -0.227
00:05 1012 29.88 841 24.83 -6.2 20.8 76 -9.8 14.4 -5.789 -0.228
00:06 1012 29.88 841 24.83 -6.3 20.6 77 -9.7 14.5 -5.812 -0.229
00:07 1012 29.88 841 24.83 -6.3 20.6 77 -9.7 14.5 -5.902 -0.232
00:08 1012 29.88 841 24.83 -6.4 20.5 77 -9.8 14.4 -5.936 -0.234
00:09 1012 29.88 841 24.83 -6.4 20.5 77 -9.8 14.4 -5.942 -0.234
00:10 1012 29.88 841 24.83 -6.4 20.5 77 -9.8 14.4 -5.953 -0.234
00:11 1012 29.88 841 24.83 -6.4 20.5 77 -9.7 14.5 -5.919 -0.233
00:12 1012 29.88 841 24.83 -6.3 20.6 77 -9.7 14.5 -5.88 -0.231
00:13 1012 29.88 841 24.83 -6.2 20.8 76 -9.9 14.3 -5.817 -0.229
00:14 1012 29.88 841 24.83 -6.1 21 74 -10 14 -5.726 -0.225
00:15 1012 29.88 841 24.83 -5.9 21.3 72 -10.1 13.8 -5.568 -0.219
00:16 1012 29.88 841 24.83 -5.8 21.6 72 -10.1 13.8 -5.392 -0.212
00:17 1012 29.88 841 24.83 -5.7 21.8 71 -10.1 13.8 -5.301 -0.209
00:18 1012 29.88 841 24.83 -5.6 21.9 71 -10.1 13.8 -5.239 -0.206
00:19 1012 29.88 841 24.83 -5.5 22 71 -10 14 -5.143 -0.202
00:20 1012 29.88 841 24.83 -5.5 22.1 69 -10.3 13.5 -5.097 -0.201
00:21 1012 29.88 841 24.83 -5.4 22.3 69 -10.2 13.7 -5.029 -0.198
00:22 1012 29.88 841 24.83 -5.3 22.4 69 -10.1 13.8 -4.95 -0.195
00:23 1012 29.88 841 24.83 -5.4 22.3 70 -10 14 -4.95 -0.195
00:24 1012 29.88 841 24.83 -5.4 22.2 73 -9.5 14.8 -4.955 -0.195
00:25 1012 29.88 841 24.83 -5.5 22.1 74 -9.5 14.9 -5.08 -0.2
00:26 1012 29.88 841 24.83 -5.6 21.9 73 -9.6 14.7 -5.131 -0.202
00:27 1012 29.88 841 24.83 -5.6 21.9 74 -9.6 14.8 -5.165 -0.203
00:28 1012 29.88 841 24.83 -5.6 21.9 74 -9.6 14.7 -5.148 -0.203
00:29 1012 29.88 841 24.83 -5.6 21.8 73 -9.7 14.6 -5.199 -0.205
00:30 1012 29.88 841 24.83 -5.7 21.8 72 -9.9 14.2 -5.165 -0.203
00:31 1012 29.88 841 24.83 -5.5 22 69 -10.3 13.4 -4.978 -0.196
00:32 1012 29.88 841 24.83 -5.4 22.3 71 -9.8 14.3 -4.882 -0.192
00:33 1012 29.88 841 24.83 -5.5 22.1 71 -9.9 14.2 -5.023 -0.198
00:34 1012 29.88 841 24.83 -5.6 22 71 -10 14 -5.097 -0.201
00:35 1012 29.88 841 24.83 -5.6 21.9 71 -10.1 13.9 -5.176 -0.204
00:36 1012 29.88 841 24.83 -5.7 21.7 72 -10.1 13.9 -5.284 -0.208
00:37 1012 29.88 841 24.83 -5.7 21.7 71 -10.1 13.8 -5.256 -0.207
00:38 1012 29.88 841 24.83 -5.7 21.8 71 -10.2 13.7 -5.205 -0.205
00:39 1012 29.88 841 24.83 -5.6 21.9 71 -10.2 13.7 -5.171 -0.204
00:40 1012 29.88 841 24.83 -5.6 21.9 69 -10.4 13.3 -5.125 -0.202
00:41 1012 29.88 841 24.83 -5.4 22.2 68 -10.5 13.1 -4.95 -0.195
00:42 1012 29.88 841 24.83 -5.2 22.6 66 -10.6 13 -4.734 -0.186
00:43 1012 29.88 841 24.83 -5.1 22.8 66 -10.4 13.3 -4.644 -0.183
00:44 1012 29.88 841 24.83 -5 23 65 -10.5 13 -4.581 -0.18
00:45 1012 29.88 841 24.83 -4.9 23.2 65 -10.4 13.2 -4.474 -0.176
00:46 1012 29.88 841 24.83 -4.8 23.3 64 -10.7 12.7 -4.4 -0.173
00:47 1012 29.88 841 24.83 -4.6 23.7 63 -10.6 13 -4.134 -0.163
00:48 1012 29.88 841 24.83 -4.8 23.4 64 -10.5 13.1 -4.236 -0.167
00:49 1012 29.88 841 24.83 -4.9 23.1 65 -10.5 13.1 -4.434 -0.175
00:50 1012 29.88 841 24.83 -5 22.9 66 -10.5 13.1 -4.553 -0.179
00:51 1012 29.88 841 24.83 -5.1 22.9 66 -10.5 13.1 -4.644 -0.183
00:52 1012 29.88 841 24.83 -5.1 22.8 66 -10.6 13 -4.661 -0.184
00:53 1012 29.88 841 24.83 -5.1 22.7 66 -10.6 12.9 -4.7 -0.185
00:54 1012 29.88 841 24.83 -5.2 22.7 66 -10.5 13.1 -4.723 -0.186
00:55 1012 29.88 841 24.83 -5.1 22.7 66 -10.6 12.9 -4.723 -0.186
00:56 1012 29.88 841 24.83 -5 22.9 64 -10.8 12.6 -4.604 -0.181
00:57 1012 29.88 841 24.83 -4.9 23.2 63 -10.9 12.4 -4.292 -0.169
00:58 1012 29.88 841 24.83 -4.6 23.7 62 -10.8 12.6 -4.026 -0.159
00:59 1012 29.88 841 24.83 -4.4 24.1 62 -10.5 13.1 -3.918 -0.154
01:00 1012 29.88 841 24.83 -4.4 24 65 -10 13.9 -3.941 -0.155
01:01 1012 29.88 841 24.83 -4.5 23.9 65 -10 13.9 -4.037 -0.159
01:02 1012 29.88 841 24.83 -4.6 23.8 64 -10.4 13.3 -4.156 -0.164
01:03 1012 29.88 841 24.83 -4.6 23.6 64 -10.4 13.2 -4.247 -0.167
01:04 1012 29.88 841 24.83 -4.6 23.6 64 -10.5 13.2 -4.219 -0.166
01:05 1012 29.88 841 24.83 -4.7 23.5 65 -10.4 13.3 -4.315 -0.17
01:06 1012 29.88 841 24.83 -4.9 23.2 65 -10.4 13.2 -4.445 -0.175
01:07 1012 29.88 841 24.83 -5 23 66 -10.4 13.2 -4.553 -0.179
01:08 1012 29.88 841 24.83 -5.1 22.9 66 -10.5 13.1 -4.621 -0.182
01:09 1012 29.88 841 24.83 -5.1 22.9 66 -10.5 13.2 -4.695 -0.185
01:10 1012 29.88 841 24.83 -5.1 22.8 66 -10.5 13.1 -4.723 -0.186
01:11 1012 29.88 841 24.83 -5.1 22.7 67 -10.4 13.2 -4.734 -0.186
01:12 1012 29.88 841 24.83 -5.1 22.8 67 -10.3 13.5 -4.797 -0.189
01:13 1012 29.88 841 24.83 -5.1 22.8 68 -10.2 13.7 -4.831 -0.19
01:14 1012 29.88 841 24.83 -5.1 22.9 67 -10.2 13.6 -4.848 -0.191
01:15 1012 29.88 841 24.83 -5.1 22.9 67 -10.3 13.5 -4.808 -0.189
01:16 1012 29.88 841 24.83 -5 23 67 -10.3 13.4 -4.797 -0.189
01:17 1012 29.88 841 24.83 -5 23 67 -10.3 13.5 -4.74 -0.187
01:18 1012 29.88 841 24.83 -5 23 67 -10.3 13.5 -4.729 -0.186
01:19 1012 29.88 841 24.83 -5 23 66 -10.4 13.4 -4.712 -0.186
01:20 1012 29.88 841 24.83 -5.1 22.8 67 -10.3 13.5 -4.734 -0.186
01:21 1012 29.88 841 24.83 -5.4 22.2 68 -10.5 13.1 -5.04 -0.198
01:22 1012 29.88 841 24.83 -5.6 21.9 68 -10.5 13 -5.239 -0.206
01:23 1012 29.88 841 24.83 -5.7 21.8 69 -10.5 13 -5.369 -0.211
01:24 1012 29.88 841 24.83 -5.7 21.7 69 -10.5 13 -5.363 -0.211
01:25 1012 29.88 841 24.83 -5.6 21.9 69 -10.5 13.1 -5.273 -0.208
01:26 1012 29.88 841 24.83 -5.4 22.2 67 -10.6 12.9 -5.114 -0.201
01:27 1012 29.88 841 24.83 -5.3 22.5 67 -10.6 13 -4.978 -0.196
01:28 1012 29.88 841 24.83 -5.2 22.7 66 -10.5 13.1 -4.88 -0.192
01:29 1012 29.88 841 24.83 -5.1 22.7 66 -10.5 13.1 -4.795 -0.189
01:30 1012 29.88 841 24.83 -5.1 22.8 66 -10.5 13.1 -4.767 -0.188
01:31 1012 29.88 841 24.83 -5 22.9 66 -10.4 13.2 -4.688 -0.185
01:32 1012 29.88 841 24.83 -4.9 23.1 66 -10.3 13.5 -4.614 -0.182
01:33 1012 29.88 841 24.83 -5.2 22.7 68 -10.3 13.5 -4.693 -0.185
01:34 1012 29.88 841 24.83 -5.3 22.5 68 -10.4 13.3 -4.857 -0.191
01:35 1012 29.88 841 24.83 -5.3 22.5 67 -10.4 13.2 -4.88 -0.192
01:36 1012 29.88 841 24.83 -5.3 22.5 67 -10.4 13.3 -4.896 -0.193
01:37 1012 29.88 841 24.83 -5.3 22.5 67 -10.4 13.2 -4.89 -0.193
01:38 1012 29.88 841 24.83 -5.2 22.6 67 -10.5 13.1 -4.879 -0.192
01:39 1012 29.88 841 24.83 -5.2 22.6 67 -10.5 13.2 -4.833 -0.19
01:40 1012 29.88 841 24.83 -5.2 22.6 67 -10.5 13.2 -4.867 -0.192
01:41 1012 29.88 841 24.83 -5.3 22.5 67 -10.6 13 -4.918 -0.194
01:42 1012 29.88 841 24.83 -5.3 22.5 66 -10.6 12.9 -4.929 -0.194
01:43 1012 29.88 841 24.83 -5.2 22.7 66 -10.6 12.9 -4.832 -0.19
01:44 1012 29.88 841 24.83 -5.1 22.7 67 -10.4 13.2 -4.781 -0.188
01:45 1012 29.88 841 24.83 -5.3 22.5 68 -10.3 13.5 -4.855 -0.191
01:46 1012 29.88 841 24.83 -5.4 22.2 68 -10.4 13.4 -5.07 -0.2
01:47 1012 29.88 841 24.83 -5.6 22 69 -10.4 13.3 -5.166 -0.203
01:48 1012 29.88 841 24.83 -5.6 21.9 70 -10.3 13.5 -5.245 -0.206
01:49 1012 29.88 841 24.83 -5.7 21.8 71 -10.2 13.6 -5.302 -0.209
01:50 1012 29.88 841 24.83 -5.8 21.7 72 -10.1 13.8 -5.319 -0.209
01:51 1012 29.88 841 24.83 -5.8 21.6 73 -9.9 14.1 -5.387 -0.212
01:52 1012 29.88 841 24.83 -5.8 21.6 73 -9.9 14.2 -5.347 -0.211
01:53 1011 29.85 841 24.83 -5.8 21.5 73 -9.9 14.1 -5.392 -0.212
01:54 1011 29.85 841 24.83 -5.9 21.3 73 -10 14 -5.489 -0.216
01:55 1011 29.85 841 24.83 -6.1 21.1 74 -10 14.1 -5.596 -0.22
01:56 1011 29.85 841 24.83 -6.2 20.9 75 -9.9 14.2 -5.732 -0.226
01:57 1011 29.85 841 24.83 -6.3 20.7 76 -9.8 14.3 -5.789 -0.228
01:58 1011 29.85 841 24.83 -6.2 20.9 75 -9.9 14.1 -5.755 -0.227
01:59 1011 29.85 841 24.83 -6 21.2 75 -9.7 14.5 -5.613 -0.221
02:00 1011 29.85 841 24.83 -6 21.2 76 -9.6 14.8 -5.641 -0.222
02:01 1011 29.85 841 24.83 -6.2 20.9 78 -9.5 14.9 -5.658 -0.223
02:02 1011 29.85 841 24.83 -6.2 20.8 78 -9.5 15 -5.76 -0.227
02:03 1011 29.85 841 24.83 -6.3 20.6 78 -9.6 14.8 -5.879 -0.231
02:04 1011 29.85 841 24.83 -6.4 20.5 78 -9.6 14.7 -5.987 -0.236
02:05 1011 29.85 841 24.83 -6.4 20.5 79 -9.5 15 -5.959 -0.235
02:06 1011 29.85 841 24.83 -6.2 20.8 79 -9.3 15.2 -5.811 -0.229
02:07 1011 29.85 841 24.83 -6 21.2 79 -9.1 15.5 -5.658 -0.223
02:08 1011 29.85 841 24.83 -5.9 21.3 79 -9 15.8 -5.545 -0.218
02:09 1011 29.85 841 24.83 -6 21.1 78 -9.3 15.3 -5.573 -0.219
02:10 1011 29.85 841 24.83 -6.2 20.8 78 -9.5 15 -5.771 -0.227
02:11 1011 29.85 841 24.83 -6.4 20.6 78 -9.5 14.9 -5.919 -0.233
02:12 1011 29.85 841 24.83 -6.4 20.5 78 -9.7 14.6 -5.998 -0.236
02:13 1011 29.85 841 24.83 -6.4 20.5 77 -9.8 14.3 -5.992 -0.236
02:14 1011 29.85 841 24.83 -6.2 20.9 75 -9.9 14.3 -5.822 -0.229
02:15 1011 29.85 841 24.83 -6 21.1 74 -9.9 14.2 -5.698 -0.224
02:16 1011 29.85 841 24.83 -6.1 21 74 -10 14.1 -5.686 -0.224
02:17 1011 29.85 841 24.83 -6.1 20.9 74 -10 14 -5.743 -0.226
02:18 1011 29.85 841 24.83 -6.2 20.8 75 -10 13.9 -5.815 -0.229
02:19 1011 29.85 841 24.83 -6.3 20.7 77 -9.6 14.7 -5.878 -0.231
02:20 1011 29.85 841 24.83 -6.3 20.6 78 -9.6 14.7 -5.946 -0.234
02:21 1011 29.85 841 24.83 -6.4 20.5 76 -10 14 -5.928 -0.233
02:22 1011 29.85 841 24.83 -6.2 20.8 74 -10.1 13.8 -5.678 -0.224
02:23 1011 29.85 841 24.83 -6 21.2 73 -10.1 13.8 -5.503 -0.217
02:24 1011 29.85 841 24.83 -5.8 21.5 72 -10.1 13.7 -5.435 -0.214
02:25 1011 29.85 841 24.83 -5.7 21.7 71 -10.2 13.6 -5.316 -0.209
02:26 1011 29.85 841 24.83 -5.6 21.9 70 -10.2 13.7 -5.174 -0.204
02:27 1011 29.85 841 24.83 -5.5 22.1 70 -10.1 13.8 -5.111 -0.201
02:28 1011 29.85 841 24.83 -5.5 22.1 71 -10 13.9 -5.134 -0.202
02:29 1011 29.85 841 24.83 -5.5 22.1 71 -9.9 14.2 -5.179 -0.204
02:30 1011 29.85 841 24.83 -5.6 22 71 -10.1 13.9 -5.196 -0.205
02:31 1011 29.85 841 24.83 -5.6 21.9 71 -10 14 -5.286 -0.208
02:32 1011 29.85 841 24.83 -5.7 21.7 72 -10.1 13.9 -5.388 -0.212
02:33 1011 29.85 841 24.83 -5.8 21.5 73 -10 14 -5.422 -0.213
02:34 1011 29.85 841 24.83 -5.9 21.3 73 -10 14.1 -5.569 -0.219
02:35 1011 29.85 841 24.83 -6 21.1 74 -10 14.1 -5.637 -0.222
02:36 1011 29.85 841 24.83 -6 21.1 74 -10 14 -5.638 -0.222
02:37 1011 29.85 841 24.83 -6 21.2 74 -9.9 14.1 -5.661 -0.223
02:38 1011 29.85 841 24.83 -6.1 21.1 74 -10 14 -5.7 -0.224
02:39 1011 29.85 841 24.83 -6.1 21.1 74 -10 14 -5.728 -0.226
02:40 1011 29.85 841 24.83 -6.1 21 75 -9.9 14.2 -5.722 -0.225
02:41 1011 29.85 841 24.83 -6.1 20.9 74 -10 14 -5.756 -0.227
02:42 1011 29.85 841 24.83 -6.2 20.9 73 -10.2 13.6 -5.807 -0.229
02:43 1011 29.85 841 24.83 -6.2 20.9 74 -10.1 13.7 -5.841 -0.23
02:44 1011 29.85 841 24.83 -6.3 20.7 73 -10.3 13.4 -5.926 -0.233
02:45 1011 29.85 841 24.83 -6.4 20.4 74 -10.3 13.5 -6.028 -0.237
02:46 1011 29.85 841 24.83 -6.5 20.3 75 -10.2 13.7 -6.147 -0.242
02:47 1011 29.85 841 24.83 -6.7 20 77 -10.1 13.8 -6.237 -0.246
02:48 1011 29.85 841 24.83 -6.7 19.9 78 -10 14 -6.333 -0.249
02:49 1011 29.85 841 24.83 -6.9 19.6 77 -10.2 13.6 -6.396 -0.252
02:50 1011 29.85 841 24.83 -6.9 19.5 77 -10.2 13.6 -6.498 -0.256
02:51 1011 29.85 841 24.83 -7 19.5 78 -10.2 13.6 -6.532 -0.257
02:52 1011 29.85 841 24.83 -7 19.5 78 -10.1 13.7 -6.56 -0.258
02:53 1011 29.85 841 24.83 -6.9 19.6 77 -10.2 13.6 -6.452 -0.254
02:54 1011 29.85 841 24.83 -6.8 19.7 77 -10.2 13.6 -6.401 -0.252
02:55 1011 29.85 841 24.83 -6.8 19.8 76 -10.3 13.5 -6.395 -0.252
02:56 1011 29.85 841 24.83 -6.8 19.8 76 -10.3 13.4 -6.407 -0.252
02:57 1011 29.85 841 24.83 -6.8 19.7 76 -10.4 13.2 -6.469 -0.255
02:58 1011 29.85 841 24.83 -6.9 19.7 76 -10.3 13.4 -6.497 -0.256
02:59 1011 29.85 841 24.83 -6.9 19.6 76 -10.5 13.1 -6.508 -0.256
03:00 1011 29.85 841 24.83 -6.9 19.6 76 -10.5 13.1 -6.514 -0.256
03:01 1011 29.85 841 24.83 -6.9 19.6 76 -10.4 13.3 -6.514 -0.256
03:02 1011 29.85 841 24.83 -6.9 19.5 77 -10.3 13.5 -6.548 -0.258
03:03 1012 29.88 841 24.83 -6.9 19.5 76 -10.4 13.2 -6.531 -0.257
03:04 1012 29.88 841 24.83 -6.9 19.6 76 -10.4 13.3 -6.497 -0.256
03:05 1012 29.88 841 24.83 -6.9 19.6 76 -10.4 13.4 -6.48 -0.255
03:06 1012 29.88 841 24.83 -6.8 19.7 76 -10.3 13.4 -6.452 -0.254
03:07 1012 29.88 841 24.83 -6.8 19.8 76 -10.3 13.4 -6.412 -0.252
03:08 1012 29.88 841 24.83 -6.7 19.9 76 -10.3 13.4 -6.366 -0.251
03:09 1012 29.88 841 24.83 -6.7 19.9 76 -10.3 13.4 -6.361 -0.25
03:10 1012 29.88 841 24.83 -6.7 20 75 -10.3 13.5 -6.332 -0.249
03:11 1012 29.88 841 24.83 -6.6 20.2 75 -10.3 13.5 -6.259 -0.246
03:12 1012 29.88 841 24.83 -6.6 20.2 75 -10.2 13.6 -6.287 -0.248
03:13 1012 29.88 841 24.83 -6.6 20.1 76 -10.2 13.7 -6.281 -0.247
03:14 1012 29.88 841 24.83 -6.7 20 76 -10.1 13.7 -6.315 -0.249
03:15 1012 29.88 841 24.83 -6.7 20 77 -10.1 13.7 -6.315 -0.249
03:16 1012 29.88 841 24.83 -6.7 19.9 76 -10.2 13.6 -6.406 -0.252
03:17 1012 29.88 841 24.83 -6.8 19.7 76 -10.4 13.2 -6.446 -0.254
03:18 1012 29.88 841 24.83 -6.9 19.6 76 -10.4 13.2 -6.497 -0.256
03:19 1012 29.88 841 24.83 -6.9 19.6 77 -10.3 13.4 -6.514 -0.256
03:20 1012 29.88 841 24.83 -6.9 19.7 76 -10.4 13.3 -6.514 -0.256
03:21 1012 29.88 841 24.83 -6.8 19.7 76 -10.4 13.2 -6.48 -0.255
03:22 1012 29.88 841 24.83 -6.8 19.8 76 -10.3 13.4 -6.395 -0.252
03:23 1012 29.88 841 24.83 -6.7 19.9 76 -10.4 13.4 -6.372 -0.251
03:24 1012 29.88 841 24.83 -6.7 20 76 -10.3 13.5 -6.355 -0.25
03:25 1012 29.88 841 24.83 -6.7 20 77 -10.1 13.8 -6.315 -0.249
03:26 1012 29.88 841 24.83 -6.7 19.9 77 -10.1 13.8 -6.338 -0.25
03:27 1012 29.88 841 24.83 -6.7 20 77 -10.1 13.8 -6.321 -0.249
03:28 1012 29.88 841 24.83 -6.7 20 78 -10 14 -6.31 -0.248
03:29 1012 29.88 841 24.83 -6.6 20.1 78 -9.9 14.1 -6.253 -0.246
03:30 1012 29.88 841 24.83 -6.6 20.1 78 -9.8 14.3 -6.225 -0.245
03:31 1012 29.88 841 24.83 -6.6 20.1 77 -10 14.1 -6.242 -0.246
03:32 1012 29.88 841 24.83 -6.6 20.1 77 -10 14 -6.247 -0.246
03:33 1012 29.88 841 24.83 -6.6 20.1 77 -10 14 -6.253 -0.246
03:34 1012 29.88 841 24.83 -6.6 20.1 77 -10 13.9 -6.225 -0.245
03:35 1012 29.88 841 24.83 -6.5 20.2 77 -10 14 -6.236 -0.246
03:36 1012 29.88 841 24.83 -6.6 20.2 77 -9.9 14.1 -6.23 -0.245
03:37 1012 29.88 841 24.83 -6.5 20.2 77 -9.9 14.2 -6.208 -0.244
03:38 1012 29.88 841 24.83 -6.6 20.2 78 -9.8 14.3 -6.202 -0.244
03:39 1012 29.88 841 24.83 -6.5 20.3 78 -9.8 14.3 -6.168 -0.243
03:40 1012 29.88 841 24.83 -6.5 20.3 78 -9.8 14.4 -6.179 -0.243
03:41 1012 29.88 841 24.83 -6.5 20.3 78 -9.7 14.5 -6.157 -0.242
03:42 1012 29.88 841 24.83 -6.6 20.1 77 -9.9 14.1 -6.191 -0.244
03:43 1012 29.88 841 24.83 -6.5 20.2 76 -10.1 13.9 -6.208 -0.244
03:44 1012 29.88 841 24.83 -6.5 20.3 76 -10 13.9 -6.134 -0.241
03:45 1012 29.88 841 24.83 -6.5 20.3 76 -10.1 13.8 -6.122 -0.241
03:46 1012 29.88 841 24.83 -6.4 20.5 76 -10 14.1 -6.071 -0.239
03:47 1012 29.88 841 24.83 -6.4 20.4 77 -9.9 14.2 -6.037 -0.238
03:48 1012 29.88 841 24.83 -6.3 20.6 77 -9.7 14.5 -5.964 -0.235
03:49 1012 29.88 841 24.83 -6.3 20.6 78 -9.6 14.6 -5.952 -0.234
03:50 1012 29.88 841 24.83 -6.3 20.6 78 -9.6 14.7 -5.947 -0.234
03:51 1012 29.88 841 24.83 -6.3 20.6 76 -9.9 14.2 -5.924 -0.233
03:52 1012 29.88 841 24.83 -6.2 20.8 74 -10.1 13.9 -5.856 -0.231
03:53 1012 29.88 841 24.83 -6.2 20.9 73 -10.2 13.7 -5.799 -0.228
03:54 1012 29.88 841 24.83 -6.1 20.9 73 -10.1 13.7 -5.76 -0.227
03:55 1012 29.88 841 24.83 -6.1 21 74 -10.1 13.9 -5.703 -0.225
03:56 1012 29.88 841 24.83 -6.1 21 74 -10 13.9 -5.714 -0.225
03:57 1012 29.88 841 24.83 -6.1 21 74 -10 13.9 -5.72 -0.225
03:58 1012 29.88 841 24.83 -6.1 21 74 -10 14 -5.72 -0.225
03:59 1012 29.88 841 24.83 -6.1 21 75 -9.8 14.3 -5.726 -0.225
04:00 1012 29.88 841 24.83 -6.2 20.9 75 -9.9 14.2 -5.765 -0.227
04:01 1012 29.88 841 24.83 -6.2 20.9 76 -9.8 14.3 -5.811 -0.229
04:02 1012 29.88 841 24.83 -6.2 20.8 75 -10 14 -5.811 -0.229
04:03 1012 29.88 841 24.83 -6 21.1 75 -9.7 14.5 -5.697 -0.224
04:04 1012 29.88 841 24.83 -6 21.1 75 -9.8 14.3 -5.675 -0.223
04:05 1012 29.88 841 24.83 -6 21.2 74 -9.9 14.2 -5.641 -0.222
04:06 1012 29.88 841 24.83 -6 21.2 75 -9.8 14.4 -5.629 -0.222
04:07 1012 29.88 841 24.83 -5.9 21.4 72 -10.1 13.9 -5.561 -0.219
04:08 1012 29.88 841 24.83 -5.8 21.6 73 -9.9 14.1 -5.51 -0.217
04:09 1012 29.88 841 24.83 -5.8 21.6 72 -10 14 -5.437 -0.214
04:10 1012 29.88 841 24.83 -5.7 21.7 73 -9.8 14.3 -5.42 -0.213
04:11 1012 29.88 841 24.83 -5.7 21.8 73 -9.8 14.4 -5.357 -0.211
04:12 1012 29.88 841 24.83 -5.7 21.8 72 -9.9 14.1 -5.329 -0.21
04:13 1012 29.88 841 24.83 -5.7 21.8 72 -9.9 14.2 -5.334 -0.21
04:14 1012 29.88 841 24.83 -5.7 21.8 73 -9.7 14.5 -5.363 -0.211
04:15 1012 29.88 841 24.83 -5.8 21.6 74 -9.7 14.6 -5.414 -0.213
04:16 1012 29.88 841 24.83 -5.9 21.5 75 -9.6 14.7 -5.471 -0.215
04:17 1012 29.88 841 24.83 -5.9 21.4 75 -9.6 14.7 -5.488 -0.216
04:18 1012 29.88 841 24.83 -5.9 21.4 76 -9.4 15.1 -5.482 -0.216
04:19 1012 29.88 841 24.83 -5.9 21.4 76 -9.4 15.1 -5.442 -0.214
04:20 1012 29.88 841 24.83 -5.8 21.6 76 -9.3 15.3 -5.357 -0.211
04:21 1012 29.88 841 24.83 -5.7 21.7 75 -9.5 14.9 -5.329 -0.21
04:22 1012 29.88 841 24.83 -5.7 21.7 75 -9.4 15 -5.283 -0.208
04:23 1012 29.88 841 24.83 -5.7 21.7 74 -9.7 14.6 -5.295 -0.208
04:24 1012 29.88 841 24.83 -5.7 21.8 74 -9.5 14.9 -5.232 -0.206
04:25 1012 29.88 841 24.83 -5.6 21.9 73 -9.7 14.5 -5.187 -0.204
04:26 1012 29.88 841 24.83 -5.5 22 73 -9.7 14.5 -5.136 -0.202
04:27 1012 29.88 841 24.83 -5.5 22 73 -9.6 14.6 -5.119 -0.202
04:28 1012 29.88 841 24.83 -5.5 22.1 71 -10 14.1 -5.119 -0.202
04:29 1012 29.88 841 24.83 -5.5 22.2 71 -10 14 -5.04 -0.198
04:30 1012 29.88 841 24.83 -5.4 22.3 73 -9.6 14.8 -4.949 -0.195
04:31 1012 29.88 841 24.83 -5.4 22.3 74 -9.2 15.4 -4.949 -0.195
04:32 1012 29.88 841 24.83 -5.4 22.3 75 -9.1 15.7 -4.983 -0.196
04:33 1012 29.88 841 24.83 -5.4 22.2 73 -9.6 14.8 -5.045 -0.199
04:34 1012 29.88 841 24.83 -5.5 22.1 71 -9.9 14.2 -5.079 -0.2
04:35 1012 29.88 841 24.83 -5.5 22.2 72 -9.7 14.6 -5.074 -0.2
04:36 1012 29.88 841 24.83 -5.4 22.2 71 -9.9 14.2 -5.045 -0.199
04:37 1012 29.88 841 24.83 -5.4 22.2 71 -9.9 14.2 -5.045 -0.199
04:38 1012 29.88 841 24.83 -5.4 22.3 72 -9.6 14.7 -5 -0.197
04:39 1012 29.88 841 24.83 -5.4 22.3 74 -9.3 15.3 -5 -0.197
04:40 1012 29.88 841 24.83 -5.4 22.3 74 -9.4 15.2 -4.966 -0.196
04:41 1012 29.88 841 24.83 -5.4 22.3 74 -9.3 15.3 -4.949 -0.195
04:42 1012 29.88 841 24.83 -5.3 22.4 74 -9.3 15.3 -4.938 -0.194
04:43 1012 29.88 841 24.83 -5.3 22.4 73 -9.5 14.9 -4.943 -0.195
04:44 1012 29.88 841 24.83 -5.3 22.4 73 -9.4 15.1 -4.921 -0.194
04:45 1012 29.88 841 24.83 -5.3 22.4 74 -9.3 15.3 -4.898 -0.193
04:46 1012 29.88 841 24.83 -5.3 22.5 74 -9.2 15.4 -4.904 -0.193
04:47 1012 29.88 841 24.83 -5.3 22.4 71 -9.8 14.4 -4.881 -0.192
04:48 1012 29.88 841 24.83 -5.3 22.5 73 -9.5 15 -4.909 -0.193
04:49 1012 29.88 841 24.83 -5.3 22.5 73 -9.3 15.2 -4.887 -0.192
04:50 1012 29.88 841 24.83 -5.3 22.5 74 -9.2 15.5 -4.864 -0.191
04:51 1012 29.88 841 24.83 -5.3 22.5 75 -9 15.9 -4.847 -0.191
04:52 1012 29.88 841 24.83 -5.3 22.5 77 -8.6 16.5 -4.853 -0.191
04:53 1012 29.88 841 24.83 -5.3 22.5 76 -8.9 15.9 -4.847 -0.191
04:54 1012 29.88 841 24.83 -5.3 22.4 75 -9 15.8 -4.853 -0.191
04:55 1012 29.88 841 24.83 -5.3 22.5 76 -8.9 16 -4.847 -0.191
04:56 1012 29.88 841 24.83 -5.2 22.6 76 -8.9 16 -4.876 -0.192
04:57 1012 29.88 841 24.83 -5.3 22.5 75 -9 15.8 -4.865 -0.192
04:58 1012 29.88 841 24.83 -5.2 22.6 76 -8.8 16.2 -4.865 -0.192
04:59 1012 29.88 841 24.83 -5.2 22.6 76 -8.9 16 -4.826 -0.19
05:00 1012 29.88 841 24.83 -5.3 22.5 77 -8.7 16.3 -4.832 -0.19
05:01 1012 29.88 841 24.83 -5.3 22.5 76 -9 15.9 -4.849 -0.191
05:02 1012 29.88 841 24.83 -5.3 22.5 75 -9 15.8 -4.855 -0.191
05:03 1012 29.88 841 24.83 -5.3 22.5 75 -9 15.8 -4.85 -0.191
05:04 1012 29.88 841 24.83 -5.3 22.5 76 -8.9 16 -4.833 -0.19
05:05 1012 29.88 841 24.83 -5.3 22.5 75 -9.1 15.7 -4.839 -0.191
05:06 1012 29.88 841 24.83 -5.2 22.6 75 -9 15.8 -4.845 -0.191
05:07 1012 29.88 841 24.83 -5.3 22.5 76 -8.9 16 -4.788 -0.189
05:08 1012 29.88 841 24.83 -5.3 22.5 76 -8.8 16.1 -4.789 -0.189
05:09 1012 29.88 841 24.83 -5.2 22.7 75 -8.9 15.9 -4.806 -0.189
05:10 1012 29.88 841 24.83 -5.2 22.6 74 -9.2 15.4 -4.806 -0.189
05:11 1012 29.88 841 24.83 -5.2 22.6 74 -9.1 15.7 -4.766 -0.188
05:12 1012 29.88 841 24.83 -5.2 22.7 75 -9 15.8 -4.766 -0.188
05:13 1012 29.88 841 24.83 -5.2 22.7 75 -9 15.8 -4.744 -0.187
05:14 1012 29.88 841 24.83 -5.1 22.7 74 -9 15.8 -4.716 -0.186
05:15 1012 29.88 841 24.83 -5.1 22.7 74 -9 15.8 -4.721 -0.186
05:16 1012 29.88 841 24.83 -5.1 22.8 74 -9.1 15.6 -4.699 -0.185
05:17 1012 29.88 841 24.83 -5.1 22.8 74 -9.1 15.7 -4.682 -0.184
05:18 1012 29.88 841 24.83 -5.1 22.9 73 -9.1 15.6 -4.671 -0.184
05:19 1012 29.88 841 24.83 -5.1 22.8 73 -9.1 15.5 -4.671 -0.184
05:20 1012 29.88 841 24.83 -5.1 22.9 73 -9.1 15.6 -4.665 -0.184
05:21 1012 29.88 841 24.83 -5.1 22.9 74 -9.1 15.7 -4.676 -0.184
05:22 1012 29.88 841 24.83 -5.1 22.9 74 -9.1 15.7 -4.654 -0.183
05:23 1012 29.88 841 24.83 -5.1 22.9 73 -9.2 15.5 -4.677 -0.184
05:24 1012 29.88 841 24.83 -5.1 22.9 73 -9.1 15.6 -4.682 -0.184
05:25 1012 29.88 841 24.83 -5.1 22.9 74 -9.1 15.6 -4.671 -0.184
05:26 1012 29.88 841 24.83 -5.1 22.9 74 -9 15.7 -4.648 -0.183
05:27 1012 29.88 841 24.83 -5.1 22.9 74 -9 15.8 -4.671 -0.184
05:28 1012 29.88 841 24.83 -5 22.9 74 -9.1 15.7 -4.66 -0.183
05:29 1012 29.88 841 24.83 -5.1 22.9 74 -9 15.8 -4.654 -0.183
05:30 1012 29.88 841 24.83 -5.1 22.9 74 -9.1 15.7 -4.631 -0.182
05:31 1012 29.88 841 24.83 -5 22.9 73 -9.1 15.6 -4.626 -0.182
05:32 1012 29.88 841 24.83 -5 22.9 74 -9 15.9 -4.609 -0.181
05:33 1012 29.88 841 24.83 -5 23 75 -8.7 16.3 -4.564 -0.18
05:34 1012 29.88 841 24.83 -5 23.1 73 -9 15.7 -4.547 -0.179
05:35 1012 29.88 842 24.86 -4.9 23.1 74 -8.8 16.2 -4.473 -0.176
05:36 1012 29.88 842 24.86 -4.9 23.2 74 -8.8 16.2 -4.411 -0.174
05:37 1012 29.88 842 24.86 -4.8 23.3 75 -8.7 16.3 -4.399 -0.173
05:38 1012 29.88 842 24.86 -4.8 23.4 76 -8.5 16.8 -4.337 -0.171
05:39 1012 29.88 842 24.86 -4.8 23.3 74 -8.8 16.1 -4.343 -0.171
05:40 1012 29.88 842 24.86 -4.9 23.3 74 -8.8 16.2 -4.423 -0.174
05:41 1012 29.88 842 24.86 -4.9 23.2 73 -9 15.8 -4.435 -0.175
05:42 1012 29.88 842 24.86 -4.9 23.2 73 -8.9 15.9 -4.446 -0.175
05:43 1012 29.88 842 24.86 -4.9 23.3 74 -8.8 16.1 -4.43 -0.174
05:44 1012 29.88 842 24.86 -4.8 23.3 76 -8.5 16.8 -4.402 -0.173
05:45 1012 29.88 842 24.86 -4.8 23.3 77 -8.3 17 -4.356 -0.171
05:46 1012 29.88 842 24.86 -4.8 23.4 75 -8.7 16.4 -4.329 -0.17
05:47 1012 29.88 842 24.86 -4.7 23.5 74 -8.7 16.4 -4.306 -0.17
05:48 1012 29.88 842 24.86 -4.7 23.6 73 -8.8 16.2 -4.249 -0.167
05:49 1012 29.88 842 24.86 -4.6 23.7 74 -8.6 16.4 -4.199 -0.165
05:50 1012 29.88 842 24.86 -4.5 23.8 74 -8.5 16.7 -4.103 -0.162
05:51 1012 29.88 842 24.86 -4.5 23.9 75 -8.3 17.1 -4.057 -0.16
05:52 1012 29.88 842 24.86 -4.4 24.1 74 -8.4 16.9 -3.973 -0.156
05:53 1012 29.88 842 24.86 -4.3 24.2 74 -8.3 17 -3.967 -0.156
05:54 1012 29.88 842 24.86 -4.3 24.3 74 -8.3 17 -3.837 -0.151
05:55 1012 29.88 842 24.86 -4.2 24.4 73 -8.3 17.1 -3.815 -0.15
05:56 1012 29.88 842 24.86 -4.2 24.5 73 -8.4 16.9 -3.775 -0.149
05:57 1012 29.88 842 24.86 -4.1 24.6 73 -8.3 17.1 -3.713 -0.146
05:58 1012 29.88 842 24.86 -4.1 24.6 75 -8 17.7 -3.707 -0.146
05:59 1012 29.88 842 24.86 -4.1 24.6 75 -8 17.6 -3.707 -0.146
06:00 1012 29.88 842 24.86 -4.1 24.6 75 -7.9 17.7 -3.69 -0.145
06:01 1012 29.88 842 24.86 -4.2 24.5 76 -7.8 17.9 -3.707 -0.146
06:02 1012 29.88 842 24.86 -4.2 24.5 76 -7.8 18 -3.713 -0.146
06:03 1012 29.88 842 24.86 -4.2 24.5 76 -7.8 18 -3.73 -0.147
06:04 1012 29.88 842 24.86 -4.2 24.5 77 -7.6 18.2 -3.759 -0.148
06:05 1012 29.88 842 24.86 -4.2 24.5 76 -7.8 18 -3.719 -0.146
06:06 1013 29.91 842 24.86 -4.2 24.5 72 -8.5 16.7 -3.787 -0.149
06:07 1013 29.91 842 24.86 -4.1 24.6 73 -8.3 17 -3.764 -0.148
06:08 1013 29.91 842 24.86 -4.1 24.7 72 -8.5 16.8 -3.702 -0.146
06:09 1013 29.91 842 24.86 -4 24.8 72 -8.3 17 -3.64 -0.143
06:10 1013 29.91 842 24.86 -4 24.9 71 -8.5 16.8 -3.595 -0.142
06:11 1013 29.91 842 24.86 -3.9 24.9 70 -8.5 16.6 -3.561 -0.14
06:12 1013 29.91 842 24.86 -3.9 25 72 -8.2 17.2 -3.476 -0.137
06:13 1013 29.91 842 24.86 -3.8 25.1 73 -8.1 17.5 -3.447 -0.136
06:14 1013 29.91 842 24.86 -3.9 25.1 72 -8.1 17.4 -3.413 -0.134
06:15 1013 29.91 842 24.86 -3.8 25.1 73 -8 17.7 -3.453 -0.136
06:16 1013 29.91 842 24.86 -3.8 25.1 72 -8.2 17.3 -3.447 -0.136
06:17 1013 29.91 842 24.86 -3.9 25 73 -8.1 17.4 -3.436 -0.135
06:18 1013 29.91 842 24.86 -3.8 25.1 73 -7.9 17.7 -3.425 -0.135
06:19 1013 29.91 842 24.86 -3.8 25.1 73 -8 17.5 -3.408 -0.134
06:20 1013 29.91 842 24.86 -3.8 25.1 72 -8.2 17.2 -3.431 -0.135
06:21 1013 29.91 842 24.86 -3.9 25.1 73 -8 17.6 -3.414 -0.134
06:22 1013 29.91 842 24.86 -3.8 25.1 70 -8.5 16.7 -3.47 -0.137
06:23 1013 29.91 842 24.86 -3.9 25 72 -8.3 17.1 -3.487 -0.137
06:24 1013 29.91 842 24.86 -4 24.9 73 -8.2 17.3 -3.55 -0.14
06:25 1013 29.91 842 24.86 -4 24.9 74 -8 17.6 -3.567 -0.14
06:26 1013 29.91 842 24.86 -4 24.8 73 -8.2 17.3 -3.606 -0.142
06:27 1013 29.91 842 24.86 -4.1 24.7 75 -7.8 17.9 -3.674 -0.145
06:28 1013 29.91 842 24.86 -4.2 24.5 76 -7.8 17.9 -3.691 -0.145
06:29 1013 29.91 842 24.86 -4.2 24.5 76 -7.7 18.1 -3.776 -0.149
06:30 1013 29.91 842 24.86 -4.3 24.3 76 -7.8 17.9 -3.799 -0.15
06:31 1013 29.91 842 24.86 -4.3 24.2 76 -7.9 17.7 -3.844 -0.151
06:32 1013 29.91 842 24.86 -4.3 24.2 76 -7.9 17.7 -3.873 -0.152
06:33 1013 29.91 842 24.86 -4.3 24.2 76 -7.9 17.8 -3.907 -0.154
06:34 1013 29.91 842 24.86 -4.4 24.1 77 -7.9 17.8 -3.918 -0.154
06:35 1013 29.91 842 24.86 -4.4 24.1 77 -7.8 18 -3.969 -0.156
06:36 1013 29.91 842 24.86 -4.4 24.1 78 -7.7 18.2 -3.963 -0.156
06:37 1013 29.91 842 24.86 -4.4 24 78 -7.6 18.3 -3.969 -0.156
06:38 1013 29.91 842 24.86 -4.5 24 79 -7.6 18.4 -3.992 -0.157
06:39 1013 29.91 842 24.86 -4.5 24 78 -7.7 18.2 -4.02 -0.158
06:40 1013 29.91 842 24.86 -4.4 24 78 -7.7 18.2 -4.009 -0.158
06:41 1013 29.91 842 24.86 -4.5 23.9 78 -7.8 17.9 -4.026 -0.159
06:42 1013 29.91 842 24.86 -4.5 23.9 78 -7.8 18 -4.048 -0.159
06:43 1013 29.91 842 24.86 -4.5 23.9 76 -8 17.6 -4.065 -0.16
06:44 1013 29.91 842 24.86 -4.5 23.9 77 -7.9 17.7 -4.077 -0.161
06:45 1013 29.91 842 24.86 -4.5 23.9 77 -8 17.7 -4.06 -0.16
06:46 1013 29.91 842 24.86 -4.5 23.9 76 -8.1 17.4 -4.031 -0.159
06:47 1013 29.91 842 24.86 -4.5 24 76 -8 17.5 -4.037 -0.159
06:48 1013 29.91 842 24.86 -4.5 23.9 76 -8 17.6 -4.054 -0.16
06:49 1013 29.91 842 24.86 -4.5 23.9 76 -8.1 17.4 -4.054 -0.16
06:50 1013 29.91 842 24.86 -4.5 23.9 76 -8.1 17.4 -4.048 -0.159
06:51 1013 29.91 842 24.86 -4.4 24 73 -8.6 16.5 -4.037 -0.159
06:52 1013 29.91 842 24.86 -4.4 24.1 74 -8.4 16.8 -4.043 -0.159
06:53 1013 29.91 842 24.86 -4.4 24.1 78 -7.7 18.1 -3.992 -0.157
06:54 1013 29.91 842 24.86 -4.4 24.1 81 -7.1 19.2 -3.947 -0.155
06:55 1013 29.91 842 24.86 -4.4 24 81 -7.2 19 -3.947 -0.155
06:56 1013 29.91 842 24.86 -4.4 24 82 -7.1 19.3 -3.975 -0.156
06:57 1013 29.91 842 24.86 -4.4 24 82 -7 19.4 -3.975 -0.156
06:58 1013 29.91 842 24.86 -4.5 23.9 74 -8.5 16.6 -4.015 -0.158
06:59 1013 29.91 842 24.86 -4.3 24.2 79 -7.5 18.5 -3.981 -0.157
07:00 1013 29.91 842 24.86 -4.3 24.2 71 -8.8 16.2 -3.907 -0.154
07:01 1013 29.91 842 24.86 -4.1 24.6 68 -9.3 15.3 -3.833 -0.151
07:02 1013 29.91 842 24.86 -3.9 24.9 72 -8.3 17.1 -3.64 -0.143
07:03 1013 29.91 842 24.86 -3.9 25 73 -8 17.7 -3.533 -0.139
07:04 1013 29.91 842 24.86 -3.9 24.9 73 -8 17.6 -3.533 -0.139
07:05 1013 29.91 842 24.86 -4 24.9 75 -7.7 18.1 -3.561 -0.14
07:06 1013 29.91 842 24.86 -4 24.8 77 -7.5 18.4 -3.578 -0.141
07:07 1013 29.91 842 24.86 -4.1 24.7 76 -7.7 18.2 -3.612 -0.142
07:08 1013 29.91 842 24.86 -4.1 24.6 76 -7.7 18.1 -3.635 -0.143
07:09 1013 29.91 842 24.86 -4.2 24.5 76 -7.7 18.1 -3.703 -0.146
07:10 1013 29.91 842 24.86 -4.2 24.5 77 -7.6 18.3 -3.771 -0.148
07:11 1013 29.91 842 24.86 -4.2 24.4 78 -7.5 18.6 -3.765 -0.148
07:12 1013 29.91 842 24.86 -4.3 24.3 79 -7.4 18.7 -3.782 -0.149
07:13 1013 29.91 842 24.86 -4.3 24.3 79 -7.4 18.7 -3.816 -0.15
07:14 1013 29.91 842 24.86 -4.3 24.3 80 -7.3 18.8 -3.867 -0.152
07:15 1013 29.91 842 24.86 -4.4 24.1 80 -7.4 18.7 -3.913 -0.154
07:16 1013 29.91 842 24.86 -4.4 24.1 80 -7.4 18.8 -3.901 -0.154
07:17 1013 29.91 842 24.86 -4.4 24.1 80 -7.3 18.8 -3.947 -0.155
07:18 1013 29.91 843 24.89 -4.4 24.1 80 -7.4 18.8 -3.969 -0.156
07:19 1013 29.91 843 24.89 -4.5 24 80 -7.4 18.7 -3.975 -0.156
07:20 1013 29.91 843 24.89 -4.4 24 80 -7.3 18.8 -3.958 -0.156
07:21 1013 29.91 843 24.89 -4.4 24.1 80 -7.3 18.9 -3.975 -0.156
07:22 1013 29.91 843 24.89 -4.4 24.2 81 -7.2 19 -3.952 -0.156
07:23 1013 29.91 843 24.89 -4.4 24.1 81 -7.1 19.2 -3.918 -0.154
07:24 1013 29.91 843 24.89 -4.3 24.2 81 -7.1 19.2 -3.935 -0.155
07:25 1013 29.91 843 24.89 -4.4 24.1 81 -7.1 19.2 -3.93 -0.155
07:26 1013 29.91 843 24.89 -4.4 24.1 81 -7.1 19.2 -3.902 -0.154
07:27 1013 29.91 843 24.89 -4.4 24.2 82 -7.1 19.3 -3.88 -0.153
07:28 1013 29.91 843 24.89 -4.3 24.2 81 -7.1 19.2 -3.863 -0.152
07:29 1013 29.91 843 24.89 -4.3 24.3 81 -7.1 19.2 -3.845 -0.151
07:30 1013 29.91 843 24.89 -4.2 24.4 80 -7.2 19.1 -3.789 -0.149
07:31 1013 29.91 843 24.89 -4.2 24.4 80 -7.2 19.1 -3.789 -0.149
07:32 1013 29.91 843 24.89 -4.2 24.5 81 -7.1 19.3 -3.738 -0.147
07:33 1013 29.91 843 24.89 -4.1 24.6 80 -7.2 19.1 -3.726 -0.147
07:34 1013 29.91 843 24.89 -4.2 24.5 79 -7.3 18.9 -3.715 -0.146
07:35 1013 29.91 843 24.89 -4.1 24.6 79 -7.3 18.8 -3.686 -0.145
07:36 1013 29.91 843 24.89 -4.1 24.7 78 -7.4 18.7 -3.635 -0.143
07:37 1013 29.91 843 24.89 -4 24.8 77 -7.5 18.5 -3.601 -0.142
07:38 1013 29.91 843 24.89 -4 24.9 75 -7.7 18.1 -3.545 -0.14
07:39 1013 29.91 843 24.89 -3.9 25.1 73 -8.1 17.4 -3.482 -0.137
07:40 1013 29.91 843 24.89 -3.8 25.2 72 -8.1 17.5 -3.426 -0.135
07:41 1013 29.91 843 24.89 -3.7 25.3 73 -7.9 17.8 -3.324 -0.131
07:42 1013 29.91 843 24.89 -3.6 25.5 72 -8 17.6 -3.222 -0.127
07:43 1013 29.91 843 24.89 -3.5 25.6 72 -7.9 17.7 -3.103 -0.122
07:44 1014 29.94 843 24.89 -3.4 25.8 71 -8 17.6 -3.017 -0.119
07:45 1014 29.94 843 24.89 -3.3 26 72 -7.6 18.3 -2.927 -0.115
07:46 1014 29.94 843 24.89 -3.3 26.1 74 -7.2 19 -2.802 -0.11
07:47 1014 29.94 843 24.89 -3.2 26.2 72 -7.5 18.5 -2.683 -0.106
07:48 1014 29.94 843 24.89 -3.2 26.3 72 -7.5 18.5 -2.655 -0.105
07:49 1014 29.94 843 24.89 -3.1 26.4 69 -8.1 17.4 -2.621 -0.103
07:50 1014 29.94 843 24.89 -3.1 26.4 69 -8 17.6 -2.615 -0.103
07:51 1014 29.94 843 24.89 -3.1 26.5 68 -8.1 17.4 -2.626 -0.103
07:52 1014 29.94 843 24.89 -3.1 26.4 67 -8.3 17 -2.604 -0.103
07:53 1014 29.94 843 24.89 -3.1 26.4 68 -8.2 17.3 -2.649 -0.104
07:54 1014 29.94 843 24.89 -3.1 26.4 68 -8.2 17.2 -2.615 -0.103
07:55 1014 29.94 843 24.89 -3.1 26.5 68 -8.2 17.2 -2.626 -0.103
07:56 1014 29.94 843 24.89 -3.1 26.4 69 -8 17.7 -2.655 -0.105
07:57 1014 29.94 843 24.89 -3.1 26.5 68 -8.1 17.4 -2.604 -0.103
07:58 1014 29.94 843 24.89 -3 26.5 67 -8.3 17.1 -2.581 -0.102
07:59 1014 29.94 843 24.89 -3 26.5 70 -7.8 18 -2.547 -0.1
08:00 1014 29.94 843 24.89 -3 26.6 68 -8.1 17.4 -2.456 -0.097
08:01 1014 29.94 843 24.89 -2.9 26.8 66 -8.5 16.8 -2.452 -0.097
08:02 1014 29.94 843 24.89 -2.9 26.8 66 -8.4 16.9 -2.446 -0.096
08:03 1014 29.94 843 24.89 -2.8 27 68 -7.9 17.8 -2.367 -0.093
08:04 1014 29.94 843 24.89 -2.8 27 69 -7.8 18 -2.316 -0.091
08:05 1014 29.94 843 24.89 -2.7 27.1 66 -8.3 17 -2.259 -0.089
08:06 1014 29.94 843 24.89 -2.7 27.1 68 -7.9 17.8 -2.259 -0.089
08:07 1014 29.94 843 24.89 -2.7 27.2 69 -7.7 18.2 -2.164 -0.085
08:08 1014 29.94 843 24.89 -2.6 27.3 67 -7.8 17.9 -2.101 -0.083
08:09 1014 29.94 843 24.89 -2.6 27.3 66 -8.2 17.3 -2.101 -0.083
08:10 1014 29.94 843 24.89 -2.6 27.4 64 -8.5 16.7 -2.142 -0.084
08:11 1014 29.94 843 24.89 -2.6 27.2 63 -8.7 16.4 -2.181 -0.086
08:12 1014 29.94 843 24.89 -2.7 27.1 64 -8.7 16.4 -2.21 -0.087
08:13 1014 29.94 843 24.89 -2.7 27.2 65 -8.4 16.9 -2.222 -0.087
08:14 1014 29.94 843 24.89 -2.7 27.2 65 -8.3 17.1 -2.199 -0.087
08:15 1014 29.94 843 24.89 -2.6 27.2 65 -8.4 16.8 -2.154 -0.085
08:16 1014 29.94 843 24.89 -2.7 27.2 63 -8.7 16.3 -2.183 -0.086
08:17 1014 29.94 843 24.89 -2.7 27.2 64 -8.6 16.5 -2.183 -0.086
08:18 1014 29.94 843 24.89 -2.7 27.2 65 -8.4 16.9 -2.2 -0.087
08:19 1014 29.94 843 24.89 -2.7 27.1 63 -8.7 16.3 -2.189 -0.086
08:20 1014 29.94 843 24.89 -2.7 27.2 62 -9 15.8 -2.223 -0.088
08:21 1014 29.94 843 24.89 -2.7 27.1 63 -8.8 16.2 -2.189 -0.086
08:22 1014 29.94 843 24.89 -2.7 27.2 61 -9.1 15.6 -2.161 -0.085
08:23 1014 29.94 843 24.89 -2.6 27.3 63 -8.7 16.4 -2.155 -0.085
08:24 1014 29.94 843 24.89 -2.6 27.3 61 -9.2 15.5 -2.133 -0.084
08:25 1014 29.94 843 24.89 -2.6 27.3 64 -8.6 16.6 -2.128 -0.084
08:26 1014 29.94 843 24.89 -2.6 27.4 63 -8.6 16.5 -2.06 -0.081
08:27 1014 29.94 843 24.89 -2.5 27.4 64 -8.4 16.8 -2.021 -0.08
08:28 1014 29.94 843 24.89 -2.5 27.5 61 -9.1 15.7 -1.965 -0.077
08:29 1014 29.94 843 24.89 -2.5 27.6 64 -8.4 16.9 -1.982 -0.078
08:30 1014 29.94 843 24.89 -2.5 27.6 62 -8.9 16.1 -1.955 -0.077
08:31 1014 29.94 843 24.89 -2.5 27.6 61 -8.9 16 -1.995 -0.079
08:32 1014 29.94 843 24.89 -2.5 27.6 66 -7.9 17.7 -1.966 -0.077
08:33 1014 29.94 843 24.89 -2.4 27.7 63 -8.4 16.8 -1.893 -0.075
08:34 1014 29.94 843 24.89 -2.4 27.7 64 -8.3 17.1 -1.899 -0.075
08:35 1014 29.94 843 24.89 -2.4 27.8 61 -8.8 16.1 -1.882 -0.074
08:36 1014 29.94 843 24.89 -2.4 27.7 64 -8.3 17.1 -1.911 -0.075
08:37 1014 29.94 843 24.89 -2.4 27.7 60 -9 15.8 -1.905 -0.075
08:38 1014 29.94 843 24.89 -2.4 27.7 61 -8.9 15.9 -1.9 -0.075
08:39 1014 29.94 843 24.89 -2.4 27.8 61 -8.9 15.9 -1.9 -0.075
08:40 1014 29.94 843 24.89 -2.4 27.8 64 -8.2 17.2 -1.861 -0.073
08:41 1014 29.94 843 24.89 -2.3 27.9 59 -9.2 15.4 -1.81 -0.071
08:42 1014 29.94 843 24.89 -2.3 27.9 63 -8.4 16.9 -1.77 -0.07
08:43 1014 29.94 843 24.89 -2.2 28 60 -8.9 15.9 -1.719 -0.068
08:44 1014 29.94 843 24.89 -2.2 28.1 61 -8.7 16.3 -1.685 -0.066
08:45 1014 29.94 843 24.89 -2.1 28.2 63 -8.2 17.2 -1.612 -0.063
08:46 1014 29.94 843 24.89 -2.1 28.3 58 -9.2 15.4 -1.578 -0.062
08:47 1014 29.94 843 24.89 -2.1 28.2 62 -8.3 17 -1.578 -0.062
08:48 1014 29.94 843 24.89 -2 28.4 58 -9.2 15.4 -1.556 -0.061
08:49 1014 29.94 843 24.89 -2 28.3 59 -9.1 15.7 -1.533 -0.06
08:50 1014 29.94 843 24.89 -2 28.4 57 -9.5 14.9 -1.505 -0.059
08:51 1014 29.94 843 24.89 -2 28.4 58 -9.1 15.6 -1.505 -0.059
08:52 1014 29.94 843 24.89 -2 28.4 60 -8.8 16.1 -1.511 -0.059
08:53 1014 29.94 843 24.89 -2 28.4 58 -9.2 15.4 -1.511 -0.059
08:54 1014 29.94 843 24.89 -2 28.4 59 -9 15.8 -1.539 -0.061
08:55 1014 29.94 843 24.89 -2 28.5 60 -8.7 16.4 -1.471 -0.058
08:56 1014 29.94 843 24.89 -1.9 28.7 64 -7.9 17.8 -1.386 -0.055
08:57 1014 29.94 843 24.89 -1.8 28.8 61 -8.3 17 -1.32 -0.052
08:58 1014 29.94 843 24.89 -1.8 28.8 59 -8.7 16.3 -1.32 -0.052
08:59 1014 29.94 843 24.89 -1.7 28.9 57 -9.1 15.7 -1.263 -0.05
09:00 1014 29.94 843 24.89 -1.7 28.9 55 -9.5 14.9 -1.241 -0.049
09:01 1014 29.94 843 24.89 -1.7 29 59 -8.6 16.5 -1.236 -0.049
09:02 1014 29.94 843 24.89 -1.7 29 57 -9 15.8 -1.185 -0.047
09:03 1014 29.94 843 24.89 -1.7 29 56 -9.3 15.3 -1.231 -0.048
09:04 1014 29.94 843 24.89 -1.7 28.9 56 -9.4 15.1 -1.288 -0.051
09:05 1014 29.94 843 24.89 -1.8 28.8 56 -9.5 14.9 -1.294 -0.051
09:06 1014 29.94 843 24.89 -1.8 28.8 59 -8.8 16.1 -1.328 -0.052
09:07 1014 29.94 843 24.89 -1.7 28.9 59 -8.8 16.2 -1.243 -0.049
09:08 1014 29.94 843 24.89 -1.6 29.1 56 -9.3 15.3 -1.142 -0.045
09:09 1014 29.94 843 24.89 -1.6 29.2 55 -9.4 15.1 -1.115 -0.044
09:10 1014 29.94 843 24.89 -1.5 29.2 59 -8.6 16.6 -1.064 -0.042
09:11 1014 29.94 843 24.89 -1.5 29.3 58 -8.7 16.4 -.991 -0.039
09:12 1014 29.94 843 24.89 -1.4 29.4 55 -9.5 15 -.992 -0.039
09:13 1014 29.94 843 24.89 -1.5 29.3 55 -9.4 15 -1.026 -0.04
09:14 1014 29.94 843 24.89 -1.5 29.4 57 -8.8 16.1 -1.01 -0.04
09:15 1014 29.94 843 24.89 -1.4 29.5 56 -9.1 15.6 -.948 -0.037
09:16 1014 29.94 843 24.89 -1.3 29.6 54 -9.4 15.2 -.885 -0.035
09:17 1014 29.94 843 24.89 -1.3 29.6 53 -9.6 14.7 -.886 -0.035
09:18 1014 29.94 843 24.89 -1.4 29.5 52 -10 14 -.903 -0.036
09:19 1014 29.94 843 24.89 -1.3 29.6 55 -9.3 15.2 -.886 -0.035
09:20 1014 29.94 843 24.89 -1.3 29.7 57 -8.8 16.2 -.768 -0.03
09:21 1014 29.94 843 24.89 -1.2 29.9 55 -9.2 15.5 -.689 -0.027
09:22 1014 29.94 843 24.89 -1.1 29.9 57 -8.7 16.3 -.672 -0.026
09:23 1014 29.94 843 24.89 -1.1 30.1 53 -9.4 15.2 -.587 -0.023
09:24 1014 29.94 843 24.89 -1 30.2 51 -9.8 14.3 -.514 -0.02
09:25 1014 29.94 843 24.89 -0.8 30.6 56 -8.4 16.9 -.452 -0.018
09:26 1014 29.94 843 24.89 -0.7 30.8 57 -8 17.5 -.446 -0.018
09:27 1014 29.94 843 24.89 -0.6 30.9 58 -7.9 17.7 -.424 -0.017
09:28 1014 29.94 843 24.89 -0.6 30.9 57 -8 17.5 -.458 -0.018
09:29 1014 29.94 843 24.89 -0.6 30.9 57 -8.2 17.3 -.47 -0.019
09:30 1014 29.94 843 24.89 -0.6 31 55 -8.5 16.7 -.458 -0.018
09:31 1014 29.94 843 24.89 -0.7 30.7 55 -8.7 16.3 -.504 -0.02
09:32 1014 29.94 843 24.89 -0.9 30.4 54 -9 15.8 -.561 -0.022
09:33 1014 29.94 843 24.89 -0.9 30.4 54 -9.1 15.7 -.555 -0.022
09:34 1014 29.94 843 24.89 -0.8 30.5 54 -9.1 15.7 -.481 -0.019
09:35 1014 29.94 843 24.89 -0.8 30.6 53 -9.3 15.3 -.481 -0.019
09:36 1014 29.94 843 24.89 -0.8 30.6 55 -8.8 16.2 -.397 -0.016
09:37 1014 29.94 843 24.89 -0.8 30.6 54 -9 15.8 -.346 -0.014
09:38 1014 29.94 843 24.89 -0.8 30.6 55 -8.6 16.5 -.289 -0.011
09:39 1014 29.94 843 24.89 -0.7 30.8 53 -9.2 15.4 -.204 -0.008
09:40 1014 29.94 843 24.89 -0.6 30.9 55 -8.5 16.7 -.176 -0.007
09:41 1014 29.94 843 24.89 -0.6 31 56 -8.3 17.1 -.189 -0.007
09:42 1014 29.94 843 24.89 -0.5 31.1 55 -8.4 16.8 -.126 -0.005
09:43 1014 29.94 843 24.89 -0.4 31.3 55 -8.3 17.1 -.144 -0.006
09:44 1014 29.94 843 24.89 -0.4 31.3 55 -8.4 16.8 -.14 -0.006
09:45 1014 29.94 843 24.89 -0.3 31.4 55 -8.4 16.9 -.129 -0.005
09:46 1014 29.94 843 24.89 -0.2 31.6 53 -8.6 16.5 -.101 -0.004
09:47 1014 29.94 843 24.89 -0.3 31.5 54 -8.4 16.8 -.148 -0.006
09:48 1014 29.94 843 24.89 -0.1 31.8 55 -8.2 17.3 -.103 -0.004
09:49 1014 29.94 843 24.89 -0 32 53 -8.5 16.7 -.058 -0.002
09:50 1014 29.94 843 24.89 -0.2 31.7 55 -8.2 17.3 -.155 -0.006
09:51 1014 29.94 843 24.89 -0.3 31.4 53 -8.7 16.4 -.24 -0.009
09:52 1014 29.94 843 24.89 -0.5 31 54 -8.7 16.3 -.388 -0.015
09:53 1014 29.94 843 24.89 -0.6 31 56 -8.4 17 -.423 -0.017
09:54 1014 29.94 843 24.89 -0.5 31.2 55 -8.4 16.8 -.389 -0.015
09:55 1014 29.94 843 24.89 -0.3 31.4 56 -8 17.7 -.276 -0.011
09:56 1014 29.94 843 24.89 -0.1 31.8 55 -8 17.6 .086 0.003
09:57 1014 29.94 843 24.89 0.2 32.3 50 -9.1 15.7 .29 0.011
09:58 1014 29.94 843 24.89 0.2 32.4 49 -9.3 15.2 .425 0.017
09:59 1014 29.94 843 24.89 0.3 32.5 48 -9.5 14.9 .351 0.014
10:00 1014 29.94 843 24.89 0.2 32.3 49 -9.3 15.2 .226 0.009
10:01 1014 29.94 843 24.89 0.2 32.4 50 -9.1 15.7 .294 0.012
10:02 1014 29.94 843 24.89 0.2 32.4 54 -8.1 17.4 .35 0.014
10:03 1014 29.94 843 24.89 0.3 32.5 50 -8.9 15.9 .379 0.015
10:04 1014 29.94 843 24.89 0.2 32.3 52 -8.6 16.6 .174 0.007
10:05 1014 29.94 843 24.89 0.2 32.3 54 -8 17.6 -.035 -0.001
10:06 1014 29.94 843 24.89 0.1 32.2 52 -8.7 16.3 -.081 -0.003
10:07 1014 29.94 843 24.89 0 32 53 -8.5 16.8 -.115 -0.005
10:08 1014 29.94 843 24.89 0 32 50 -9.2 15.5 -.104 -0.004
10:09 1014 29.94 843 24.89 -0.1 31.9 51 -9.1 15.6 -.262 -0.01
10:10 1014 29.94 843 24.89 -0.1 31.8 51 -9.1 15.7 -.258 -0.01
10:11 1014 29.94 843 24.89 -0.1 31.9 55 -8 17.7 -.185 -0.007
10:12 1014 29.94 843 24.89 -0 32 53 -8.6 16.6 .025 0.001
10:13 1014 29.94 843 24.89 -0.1 31.8 53 -8.5 16.7 .041 0.002
10:14 1014 29.94 843 24.89 -0.1 31.8 56 -7.9 17.7 .029 0.001
10:15 1014 29.94 843 24.89 -0.1 31.9 51 -9 15.8 .108 0.004
10:16 1014 29.94 843 24.89 -0.2 31.7 53 -8.8 16.2 .011 0
10:17 1014 29.94 843 24.89 -0.3 31.5 52 -9 15.7 .005 0
10:18 1014 29.94 843 24.89 -0.3 31.5 54 -8.5 16.7 .039 0.002
10:19 1014 29.94 843 24.89 -0.2 31.6 53 -8.7 16.4 -.025 -0.001
10:20 1014 29.94 843 24.89 -0.1 31.8 51 -9 15.9 .026 0.001
10:21 1014 29.94 843 24.89 0 32 52 -8.7 16.4 -.014 -0.001
10:22 1014 29.94 843 24.89 0.1 32.1 53 -8.4 16.9 .013 0.001
10:23 1014 29.94 843 24.89 0 32.1 55 -7.9 17.8 -.032 -0.001
10:24 1014 29.94 843 24.89 -0.1 31.8 58 -7.4 18.6 -.146 -0.006
10:25 1014 29.94 843 24.89 -0.3 31.4 54 -8.4 16.8 -.238 -0.009
10:26 1014 29.94 843 24.89 -0.5 31.1 55 -8.4 16.9 -.379 -0.015
10:27 1014 29.94 843 24.89 -0.5 31.1 58 -7.7 18.1 -.38 -0.015
10:28 1014 29.94 843 24.89 -0.5 31.1 59 -7.6 18.3 -.352 -0.014
10:29 1014 29.94 843 24.89 -0.6 31 57 -8 17.5 -.392 -0.015
10:30 1014 29.94 843 24.89 -0.7 30.8 55 -8.5 16.6 -.494 -0.019
10:31 1014 29.94 843 24.89 -0.8 30.6 58 -8 17.6 -.545 -0.021
10:32 1014 29.94 843 24.89 -0.6 30.9 55 -8.7 16.4 -.342 -0.013
10:33 1014 29.94 843 24.89 -0.4 31.2 57 -7.8 17.9 -.183 -0.007
10:34 1014 29.94 843 24.89 -0.2 31.6 55 -8.2 17.2 .048 0.002
10:35 1014 29.94 843 24.89 -0 32 57 -7.6 18.4 .184 0.007
10:36 1014 29.94 843 24.89 0.1 32.3 51 -8.8 16.1 .28 0.011
10:37 1014 29.94 843 24.89 0.1 32.1 53 -8.5 16.7 .257 0.01
10:38 1014 29.94 843 24.89 0 32.1 52 -8.6 16.5 .178 0.007
10:39 1014 29.94 843 24.89 0 32.1 54 -8.2 17.3 .149 0.006
10:40 1014 29.94 843 24.89 0.1 32.1 52 -8.6 16.6 .2 0.008
10:41 1014 29.94 843 24.89 0 32 54 -8.2 17.2 .115 0.005
10:42 1014 29.94 843 24.89 -0.1 31.9 54 -8.4 17 .053 0.002
10:43 1014 29.94 843 24.89 -0.2 31.7 54 -8.3 17.1 -.015 -0.001
10:44 1014 29.94 843 24.89 -0.3 31.5 55 -8.2 17.3 -.219 -0.009
10:45 1014 29.94 843 24.89 -0.5 31.1 57 -7.9 17.7 -.367 -0.014
10:46 1014 29.94 843 24.89 -0.7 30.7 60 -7.5 18.5 -.503 -0.02
10:47 1014 29.94 843 24.89 -0.8 30.6 57 -8.2 17.2 -.576 -0.023
10:48 1014 29.94 843 24.89 -0.8 30.5 55 -8.8 16.1 -.571 -0.022
10:49 1014 29.94 843 24.89 -0.9 30.4 59 -7.9 17.7 -.644 -0.025
10:50 1014 29.94 843 24.89 -0.8 30.5 61 -7.5 18.5 -.548 -0.022
10:51 1014 29.94 844 24.92 -0.8 30.5 59 -7.9 17.7 -.588 -0.023
10:52 1014 29.94 844 24.92 -0.9 30.4 57 -8.4 16.9 -.65 -0.026
10:53 1014 29.94 843 24.89 -0.8 30.5 58 -8.1 17.5 -.605 -0.024
10:54 1014 29.94 844 24.92 -0.7 30.7 57 -8.2 17.2 -.475 -0.019
10:55 1014 29.94 843 24.89 -0.6 30.9 58 -7.8 18 -.339 -0.013
10:56 1014 29.94 843 24.89 -0.4 31.3 53 -8.8 16.2 -.067 -0.003
10:57 1014 29.94 843 24.89 -0.2 31.6 52 -8.9 16 .006 0
10:58 1014 29.94 843 24.89 -0.1 31.8 55 -8.2 17.3 .08 0.003
10:59 1014 29.94 843 24.89 -0.1 31.9 54 -8.4 16.9 .148 0.006
11:00 1014 29.94 844 24.92 0 32 54 -8.3 17 .238 0.009
11:01 1014 29.94 844 24.92 -0 31.9 57 -7.5 18.5 .04 0.002
11:02 1014 29.94 844 24.92 -0.2 31.6 54 -8.4 16.9 -.073 -0.003
11:03 1014 29.94 844 24.92 -0.2 31.6 58 -7.6 18.3 -.045 -0.002
11:04 1014 29.94 844 24.92 0 32 55 -8 17.6 .3 0.012
11:05 1014 29.94 844 24.92 0.2 32.4 51 -8.8 16.1 .442 0.017
11:06 1014 29.94 844 24.92 0.2 32.4 54 -7.9 17.8 .413 0.016
11:07 1014 29.94 843 24.89 0.3 32.5 52 -8.3 17 .51 0.02
11:08 1014 29.94 844 24.92 0.3 32.6 50 -9 15.7 .549 0.022
11:09 1014 29.94 844 24.92 0.4 32.7 50 -8.7 16.3 .6 0.024
11:10 1014 29.94 844 24.92 0.4 32.8 50 -8.7 16.3 .538 0.021
11:11 1014 29.94 844 24.92 0.3 32.6 52 -8.5 16.7 .442 0.017
11:12 1014 29.94 844 24.92 0.4 32.7 52 -8.3 17 .498 0.02
11:13 1014 29.94 843 24.89 0.5 32.8 50 -8.7 16.3 .498 0.02
11:14 1014 29.94 843 24.89 0.6 33 50 -8.8 16.1 .555 0.022
11:15 1014 29.94 844 24.92 0.4 32.8 49 -9 15.9 .515 0.02
11:16 1014 29.94 843 24.89 0.4 32.8 49 -8.9 15.9 .509 0.02
11:17 1014 29.94 843 24.89 0.4 32.8 52 -8.3 17 .497 0.02
11:18 1014 29.94 843 24.89 0.4 32.7 58 -6.9 19.6 .502 0.02
11:19 1014 29.94 843 24.89 0.3 32.6 50 -9 15.8 .423 0.017
11:20 1014 29.94 843 24.89 0.2 32.3 51 -8.8 16.2 .208 0.008
11:21 1014 29.94 843 24.89 -0 32 53 -8.5 16.7 .078 0.003
11:22 1014 29.94 843 24.89 -0 31.9 54 -8.2 17.3 .112 0.004
11:23 1014 29.94 843 24.89 0.1 32.1 57 -7.5 18.6 .383 0.015
11:24 1014 29.94 843 24.89 0.3 32.6 51 -8.6 16.6 .592 0.023
11:25 1014 29.94 843 24.89 0.4 32.7 51 -8.6 16.6 .586 0.023
11:26 1014 29.94 843 24.89 0.4 32.7 54 -7.9 17.7 .501 0.02
11:27 1014 29.94 843 24.89 0.4 32.7 50 -8.7 16.3 .433 0.017
11:28 1014 29.94 844 24.92 0.4 32.7 50 -8.9 16 .472 0.019
11:29 1014 29.94 844 24.92 0.4 32.8 52 -8.2 17.2 .534 0.021
11:30 1014 29.94 844 24.92 0.5 32.9 51 -8.5 16.7 .732 0.029
11:31 1014 29.94 844 24.92 0.5 33 48 -9.4 15.1 .675 0.027
11:32 1014 29.94 844 24.92 0.6 33 53 -8.1 17.5 .533 0.021
11:33 1014 29.94 844 24.92 0.7 33.2 51 -8.4 16.9 .788 0.031
11:34 1014 29.94 843 24.89 1 33.7 50 -8.4 16.8 1.184 0.047
11:35 1014 29.94 844 24.92 1.3 34.3 47 -8.9 16.1 1.483 0.058
11:36 1014 29.94 843 24.89 1.4 34.6 46 -8.9 16.1 1.591 0.063
11:37 1014 29.94 844 24.92 1.5 34.6 48 -8.5 16.7 1.466 0.058
11:38 1014 29.94 844 24.92 1.3 34.3 46 -9 15.8 1.285 0.051
11:39 1014 29.94 843 24.89 1.2 34.2 45 -9.3 15.2 1.194 0.047
11:40 1014 29.94 843 24.89 1.2 34.1 45 -9.6 14.8 1.257 0.049
11:41 1014 29.94 843 24.89 1 33.7 46 -9.5 14.9 1.215 0.048
11:42 1014 29.94 843 24.89 0.6 33.2 49 -9 15.9 .995 0.039
11:43 1014 29.94 843 24.89 0.7 33.2 48 -9.2 15.5 1.012 0.04
11:44 1014 29.94 843 24.89 0.9 33.7 52 -7.8 17.9 1.146 0.045
11:45 1014 29.94 843 24.89 1.1 34 47 -8.9 15.9 1.333 0.052
11:46 1014 29.94 843 24.89 1 33.8 48 -8.9 16 1.18 0.046
11:47 1014 29.94 843 24.89 1 33.8 48 -8.7 16.3 1.184 0.047
11:48 1014 29.94 843 24.89 1.1 33.9 47 -8.9 15.9 1.247 0.049
11:49 1014 29.94 843 24.89 0.9 33.7 48 -8.9 16 1.099 0.043
11:50 1014 29.94 843 24.89 0.9 33.6 50 -8.5 16.8 1.184 0.047
11:51 1014 29.94 843 24.89 1 33.7 52 -7.8 18 1.257 0.049
11:52 1014 29.94 843 24.89 0.9 33.6 58 -6.4 20.5 1.212 0.048
11:53 1014 29.94 843 24.89 1.1 33.9 51 -8.1 17.5 1.313 0.052
11:54 1014 29.94 843 24.89 1.2 34.1 47 -8.9 16 1.488 0.059
11:55 1014 29.94 843 24.89 1.1 34 49 -8.3 17 1.335 0.053
11:56 1014 29.94 843 24.89 0.7 33.3 48 -9.1 15.7 .933 0.037
11:57 1014 29.94 843 24.89 0.4 32.8 51 -8.6 16.5 .679 0.027
11:58 1014 29.94 843 24.89 0.2 32.4 51 -8.7 16.4 .498 0.02
11:59 1014 29.94 843 24.89 0.2 32.3 53 -8.2 17.2 .407 0.016
12:00 1014 29.94 843 24.89 0.5 32.8 51 -8.6 16.6 .786 0.031
12:01 1014 29.94 843 24.89 0.8 33.4 50 -8.4 16.8 1.069 0.042
12:02 1014 29.94 843 24.89 1 33.7 48 -8.8 16.2 1.204 0.047
12:03 1014 29.94 843 24.89 0.8 33.5 50 -8.5 16.8 1.023 0.04
12:04 1014 29.94 843 24.89 0.7 33.3 48 -9.1 15.6 1.017 0.04
12:05 1014 29.94 843 24.89 0.8 33.4 49 -8.9 16 .989 0.039
12:06 1014 29.94 843 24.89 0.7 33.3 49 -8.7 16.4 .944 0.037
12:07 1014 29.94 843 24.89 0.8 33.4 54 -7.4 18.7 1.051 0.041
12:08 1014 29.94 843 24.89 0.8 33.5 51 -8.2 17.2 1.068 0.042
12:09 1014 29.94 843 24.89 0.8 33.5 48 -8.9 16 1.096 0.043
12:10 1014 29.94 843 24.89 0.9 33.6 49 -8.7 16.3 1.09 0.043
12:11 1014 29.94 843 24.89 0.9 33.6 49 -8.6 16.5 1.119 0.044
12:12 1014 29.94 843 24.89 1 33.8 48 -8.8 16.1 1.322 0.052
12:13 1014 29.94 843 24.89 1.3 34.4 48 -8.6 16.5 1.662 0.065
12:14 1014 29.94 843 24.89 1.5 34.7 47 -8.7 16.3 1.944 0.077
12:15 1014 29.94 843 24.89 1.7 35 45 -9.1 15.7 2.142 0.084
12:16 1014 29.94 843 24.89 1.9 35.4 50 -7.6 18.3 2.131 0.084
12:17 1014 29.94 843 24.89 2.1 35.7 47 -8.2 17.3 2.442 0.096
12:18 1014 29.94 844 24.92 2.2 36 45 -8.5 16.7 2.635 0.104
12:19 1014 29.94 844 24.92 2.2 36 44 -8.7 16.3 2.804 0.11
12:20 1014 29.94 843 24.89 2.4 36.3 46 -8.1 17.4 2.991 0.118
12:21 1014 29.94 843 24.89 2.5 36.4 45 -8.4 16.9 3.234 0.127
12:22 1014 29.94 843 24.89 2.3 36.2 44 -8.8 16.1 3.042 0.12
12:23 1014 29.94 843 24.89 2.2 35.9 48 -7.8 18 2.832 0.111
12:24 1014 29.94 843 24.89 2.3 36.1 46 -8.3 17.1 2.917 0.115
12:25 1014 29.94 843 24.89 2.4 36.3 42 -9.3 15.2 2.979 0.117
12:26 1014 29.94 843 24.89 2.5 36.4 44 -8.7 16.4 3.11 0.122
12:27 1014 29.94 843 24.89 2.6 36.7 43 -8.8 16.2 3.064 0.121
12:28 1014 29.94 843 24.89 2.6 36.8 42 -9.1 15.6 2.94 0.116
12:29 1014 29.94 843 24.89 2.4 36.4 44 -8.7 16.4 2.849 0.112
12:30 1014 29.94 843 24.89 2.1 35.8 45 -8.6 16.5 2.68 0.106
12:31 1014 29.94 843 24.89 2.1 35.9 41 -9.8 14.4 2.736 0.108
12:32 1014 29.94 843 24.89 2.1 35.8 44 -9.1 15.7 2.73 0.107
12:33 1014 29.94 843 24.89 2.1 35.8 44 -9.1 15.7 2.764 0.109
12:34 1014 29.94 843 24.89 2 35.6 43 -9.4 15.1 2.566 0.101
12:35 1014 29.94 843 24.89 2 35.5 44 -8.9 15.9 2.481 0.098
12:36 1014 29.94 843 24.89 1.9 35.5 48 -7.9 17.8 2.402 0.095
12:37 1014 29.94 843 24.89 2 35.7 44 -8.9 15.9 2.544 0.1
12:38 1014 29.94 843 24.89 2 35.6 38 -10.9 12.4 2.549 0.1
12:39 1014 29.94 843 24.89 2 35.6 33 -12.5 9.5 2.532 0.1
12:40 1014 29.94 843 24.89 2.1 35.7 32 -13.1 8.4 2.566 0.101
12:41 1014 29.94 843 24.89 2.1 35.8 46 -8.3 17 2.64 0.104
12:42 1014 29.94 843 24.89 2.3 36.1 42 -9.4 15 2.787 0.11
12:43 1014 29.94 843 24.89 2.1 35.9 37 -11.3 11.7 2.696 0.106
12:44 1014 29.94 843 24.89 2.4 36.3 29 -13.9 6.9 2.826 0.111
12:45 1014 29.94 843 24.89 2.4 36.3 24 -16.1 3.1 2.826 0.111
12:46 1014 29.94 843 24.89 2.2 36 27 -14.9 5.1 2.719 0.107
12:47 1014 29.94 843 24.89 2.3 36.1 29 -13.8 7.1 2.787 0.11
12:48 1014 29.94 843 24.89 2.3 36.2 36 -11.4 11.4 2.804 0.11
12:49 1014 29.94 843 24.89 2.3 36.2 35 -11.7 10.9 2.821 0.111
12:50 1014 29.94 843 24.89 2.3 36.1 32 -12.8 8.9 2.776 0.109
12:51 1014 29.94 843 24.89 2.4 36.3 32 -12.7 9.1 2.763 0.109
12:52 1014 29.94 843 24.89 2.4 36.2 33 -12.3 9.9 2.78 0.109
12:53 1014 29.94 843 24.89 2.3 36.1 33 -12.4 9.6 2.65 0.104
12:54 1014 29.94 843 24.89 2.2 35.9 31 -13.5 7.8 2.649 0.104
12:55 1014 29.94 843 24.89 2.1 35.8 32 -12.8 9 2.598 0.102
12:56 1014 29.94 843 24.89 2.3 36.1 37 -10.8 12.5 2.773 0.109
12:57 1014 29.94 843 24.89 2.6 36.8 28 -14.2 6.4 3.083 0.121
12:58 1014 29.94 843 24.89 2.5 36.6 29 -13.9 7 2.987 0.118
12:59 1014 29.94 843 24.89 2.5 36.4 38 -10.5 13 3.027 0.119
13:00 1014 29.94 843 24.89 2.8 37.1 35 -11.3 11.6 3.381 0.133
13:01 1014 29.94 843 24.89 3 37.5 30 -12.9 8.8 3.579 0.141
13:02 1014 29.94 843 24.89 2.8 37.1 37 -10.5 13.1 3.352 0.132
13:03 1014 29.94 843 24.89 2.6 36.6 32 -12.5 9.5 3.034 0.119
13:04 1014 29.94 843 24.89 2.5 36.4 38 -10.6 13 2.96 0.117
13:05 1014 29.94 843 24.89 2.7 36.9 33 -12 10.3 3.237 0.127
13:06 1014 29.94 843 24.89 2.8 37 25 -15.6 3.9 3.242 0.128
13:07 1014 29.94 843 24.89 2.6 36.6 34 -12 10.5 3.015 0.119
13:08 1014 29.94 843 24.89 2.6 36.7 31 -12.9 8.8 3.134 0.123
13:09 1014 29.94 843 24.89 2.7 36.8 31 -12.7 9.2 3.167 0.125
13:10 1014 29.94 843 24.89 2.7 36.9 32 -12.6 9.3 3.19 0.126
13:11 1014 29.94 843 24.89 2.8 37.1 30 -13.1 8.4 3.325 0.131
13:12 1014 29.94 843 24.89 2.7 36.8 33 -12.2 10 3.16 0.124
13:13 1014 29.94 843 24.89 2.6 36.7 31 -12.9 8.8 3.087 0.122
13:14 1014 29.94 843 24.89 2.6 36.7 30 -13.2 8.2 3.03 0.119
13:15 1014 29.94 843 24.89 2.6 36.6 30 -13.4 7.9 3.03 0.119
13:16 1014 29.94 843 24.89 2.6 36.8 29 -13.7 7.3 3.109 0.122
13:17 1014 29.94 843 24.89 2.6 36.8 34 -11.6 11.2 3.075 0.121
13:18 1014 29.94 843 24.89 2.8 37 33 -12.1 10.2 3.182 0.125
13:19 1014 29.94 843 24.89 2.9 37.3 32 -12.3 9.9 3.357 0.132
13:20 1014 29.94 843 24.89 2.9 37.3 26 -14.7 5.6 3.357 0.132
13:21 1014 29.94 843 24.89 2.7 36.9 32 -12.5 9.5 3.21 0.126
13:22 1014 29.94 843 24.89 2.8 37 31 -12.7 9.2 3.294 0.13
13:23 1014 29.94 843 24.89 2.9 37.2 37 -10.3 13.4 3.379 0.133
13:24 1014 29.94 843 24.89 3.1 37.7 32 -12.2 10 3.616 0.142
13:25 1014 29.94 843 24.89 3.1 37.5 38 -10 14 3.56 0.14
13:26 1014 29.94 843 24.89 3.2 37.8 29 -13.3 8.1 3.718 0.146
13:27 1014 29.94 843 24.89 3 37.4 28 -14 6.8 3.497 0.138
13:28 1014 29.94 843 24.89 2.9 37.3 26 -14.9 5.1 3.469 0.137
13:29 1014 29.94 843 24.89 3 37.4 24 -16 3.3 3.503 0.138
13:30 1014 29.94 843 24.89 2.9 37.2 26 -15.1 4.8 3.39 0.133
13:31 1014 29.94 843 24.89 2.9 37.2 28 -13.9 7 3.418 0.135
13:32 1014 29.94 843 24.89 3 37.4 34 -11.4 11.4 3.571 0.141
13:33 1014 29.94 843 24.89 3.1 37.5 29 -13.1 8.4 3.587 0.141
13:34 1014 29.94 843 24.89 2.9 37.2 29 -13.7 7.3 3.373 0.133
13:35 1014 29.94 843 24.89 2.9 37.2 35 -11.3 11.7 3.361 0.132
13:36 1014 29.94 843 24.89 2.9 37.2 22 -17.1 1.3 3.378 0.133
13:37 1014 29.94 843 24.89 2.8 37 24 -15.9 3.3 3.276 0.129
13:38 1014 29.94 843 24.89 2.8 37.1 27 -14.5 5.9 3.338 0.131
13:39 1014 29.94 843 24.89 2.9 37.2 25 -15.3 4.5 3.412 0.134
13:40 1014 29.94 843 24.89 2.9 37.2 22 -16.7 1.9 3.44 0.135
13:41 1014 29.94 843 24.89 2.9 37.3 29 -13.5 7.7 3.463 0.136
13:42 1014 29.94 843 24.89 3 37.5 27 -14.3 6.3 3.547 0.14
13:43 1014 29.94 843 24.89 3.1 37.6 29 -13.1 8.4 3.638 0.143
13:44 1014 29.94 843 24.89 3 37.4 30 -12.8 9 3.532 0.139
13:45 1014 29.94 843 24.89 2.9 37.3 27 -14.4 6.1 3.391 0.134
13:46 1014 29.94 843 24.89 2.9 37.3 30 -13.2 8.3 3.475 0.137
13:47 1014 29.94 843 24.89 3.1 37.5 34 -11.3 11.7 3.566 0.14
13:48 1014 29.94 843 24.89 3.2 37.8 32 -12.1 10.2 3.741 0.147
13:49 1014 29.94 843 24.89 3.4 38.1 38 -9.7 14.6 3.882 0.153
13:50 1014 29.94 843 24.89 3.4 38.1 32 -11.8 10.7 3.837 0.151
13:51 1014 29.94 843 24.89 3.3 37.9 30 -12.7 9.2 3.724 0.147
13:52 1014 29.94 843 24.89 3.2 37.8 27 -14.3 6.3 3.667 0.144
13:53 1014 29.94 843 24.89 3.2 37.7 31 -12.4 9.7 3.559 0.14
13:54 1014 29.94 843 24.89 3.2 37.8 32 -11.8 10.8 3.729 0.147
13:55 1014 29.94 843 24.89 3.4 38.1 33 -11.3 11.6 3.842 0.151
13:56 1014 29.94 843 24.89 3.4 38 26 -14.4 6 3.87 0.152
13:57 1014 29.94 843 24.89 3.3 37.9 30 -12.6 9.3 3.791 0.149
13:58 1014 29.94 843 24.89 3.2 37.8 24 -15.4 4.3 3.723 0.147
13:59 1014 29.94 843 24.89 3.2 37.8 29 -13.3 8 3.661 0.144
14:00 1014 29.94 843 24.89 3.3 38 31 -12.1 10.2 3.842 0.151
14:01 1013 29.91 843 24.89 3.5 38.2 33 -11.5 11.2 3.944 0.155
14:02 1014 29.94 843 24.89 3.4 38.1 30 -12.6 9.3 3.881 0.153
14:03 1014 29.94 843 24.89 3.3 37.9 30 -12.9 8.7 3.734 0.147
14:04 1014 29.94 843 24.89 3.2 37.8 22 -16.3 2.6 3.649 0.144
14:05 1014 29.94 843 24.89 3.1 37.7 23 -15.9 3.4 3.627 0.143
14:06 1013 29.91 843 24.89 3.1 37.6 25 -15.3 4.4 3.598 0.142
14:07 1014 29.94 843 24.89 3.2 37.8 28 -13.4 7.8 3.735 0.147
14:08 1014 29.94 843 24.89 3.4 38 26 -14.7 5.6 3.854 0.152
14:09 1013 29.91 843 24.89 3.4 38 29 -13.1 8.4 3.832 0.151
14:10 1013 29.91 843 24.89 3.5 38.3 24 -15.5 4.2 4.024 0.158
14:11 1013 29.91 843 24.89 3.5 38.3 27 -13.6 7.4 4.001 0.158
14:12 1013 29.91 843 24.89 3.6 38.4 24 -15.1 4.8 4.108 0.162
14:13 1013 29.91 843 24.89 3.5 38.2 27 -13.7 7.3 3.905 0.154
14:14 1013 29.91 843 24.89 3.2 37.8 26 -14.6 5.8 3.718 0.146
14:15 1013 29.91 843 24.89 3.2 37.8 25 -15.1 4.7 3.644 0.143
14:16 1013 29.91 843 24.89 3.2 37.7 31 -12.6 9.3 3.605 0.142
14:17 1013 29.91 843 24.89 3.3 38 24 -15.2 4.6 3.798 0.15
14:18 1013 29.91 843 24.89 3.3 37.9 23 -16.1 3 3.725 0.147
14:19 1013 29.91 843 24.89 3.3 37.9 30 -12.7 9.1 3.668 0.144
14:20 1013 29.91 843 24.89 3.3 38 26 -14.6 5.7 3.815 0.15
14:21 1013 29.91 843 24.89 3.4 38.1 26 -14.4 6.1 3.826 0.151
14:22 1013 29.91 843 24.89 3.4 38 26 -14.5 5.9 3.775 0.149
14:23 1013 29.91 843 24.89 3.3 37.9 27 -13.8 7.1 3.752 0.148
14:24 1013 29.91 843 24.89 3.4 38.1 24 -15.2 4.7 3.82 0.15
14:25 1013 29.91 843 24.89 3.3 38 31 -12.3 9.9 3.718 0.146
14:26 1013 29.91 843 24.89 3.5 38.2 33 -11.4 11.5 3.916 0.154
14:27 1013 29.91 843 24.89 3.6 38.6 30 -12.5 9.5 4.103 0.162
14:28 1013 29.91 843 24.89 3.6 38.5 27 -13.5 7.6 4.081 0.161
14:29 1013 29.91 842 24.86 3.5 38.3 30 -12.5 9.5 3.934 0.155
14:30 1013 29.91 842 24.86 3.6 38.4 25 -14.9 5.1 4.093 0.161
14:31 1013 29.91 842 24.86 3.6 38.5 25 -14.9 5.1 4.031 0.159
14:32 1013 29.91 842 24.86 3.6 38.4 27 -14 6.9 4.043 0.159
14:33 1013 29.91 842 24.86 3.7 38.6 30 -12.5 9.5 4.161 0.164
14:34 1013 29.91 842 24.86 3.7 38.7 35 -10.4 13.3 4.213 0.166
14:35 1013 29.91 842 24.86 3.8 38.8 25 -14.5 5.9 4.247 0.167
14:36 1013 29.91 842 24.86 3.7 38.6 33 -11 12.2 4.224 0.166
14:37 1013 29.91 842 24.86 3.9 39 31 -11.7 11 4.4 0.173
14:38 1013 29.91 842 24.86 3.9 39 30 -12.3 9.9 4.4 0.173
14:39 1013 29.91 842 24.86 3.9 39.1 32 -11.2 11.8 4.412 0.174
14:40 1013 29.91 842 24.86 4.1 39.3 27 -13.2 8.2 4.52 0.178
14:41 1013 29.91 842 24.86 4 39.3 30 -12.2 10 4.457 0.175
14:42 1013 29.91 842 24.86 3.9 39.1 29 -12.6 9.2 4.395 0.173
14:43 1013 29.91 842 24.86 3.9 39 24 -15.1 4.8 4.36 0.172
14:44 1013 29.91 842 24.86 3.9 39.1 27 -13.6 7.5 4.388 0.173
14:45 1013 29.91 842 24.86 3.9 39 27 -13.7 7.3 4.388 0.173
14:46 1013 29.91 842 24.86 3.7 38.7 30 -12.3 9.9 4.167 0.164
14:47 1013 29.91 842 24.86 3.7 38.6 32 -11.4 11.4 4.167 0.164
14:48 1013 29.91 842 24.86 3.8 38.9 26 -14.2 6.5 4.303 0.169
14:49 1013 29.91 842 24.86 3.8 38.8 24 -15 5 4.281 0.169
14:50 1013 29.91 842 24.86 3.9 38.9 28 -13 8.7 4.366 0.172
14:51 1013 29.91 842 24.86 3.8 38.9 23 -15.4 4.3 4.321 0.17
14:52 1013 29.91 842 24.86 3.7 38.7 27 -13.6 7.5 4.231 0.167
14:53 1013 29.91 842 24.86 3.9 39 28 -12.8 8.9 4.4 0.173
14:54 1013 29.91 842 24.86 4 39.2 33 -11 12.2 4.474 0.176
14:55 1013 29.91 842 24.86 4 39.3 34 -10.4 13.3 4.524 0.178
14:56 1013 29.91 842 24.86 4.1 39.3 36 -9.5 14.8 4.586 0.181
14:57 1013 29.91 842 24.86 4.2 39.5 28 -12.8 8.9 4.637 0.183
14:58 1013 29.91 842 24.86 4.1 39.4 25 -14.5 5.9 4.529 0.178
14:59 1013 29.91 842 24.86 4 39.2 30 -12.3 9.9 4.421 0.174
15:00 1013 29.91 842 24.86 4 39.1 29 -12.4 9.7 4.41 0.174
15:01 1013 29.91 842 24.86 4.1 39.5 31 -11.5 11.3 4.619 0.182
15:02 1013 29.91 842 24.86 4.2 39.6 26 -13.9 7.1 4.715 0.186
15:03 1013 29.91 842 24.86 4.1 39.4 23 -15.2 4.7 4.613 0.182
15:04 1013 29.91 842 24.86 4 39.2 22 -15.8 3.6 4.431 0.174
15:05 1013 29.91 842 24.86 3.9 39 28 -13 8.7 4.42 0.174
15:06 1013 29.91 842 24.86 4 39.2 26 -13.7 7.4 4.465 0.176
15:07 1013 29.91 842 24.86 3.9 39.1 30 -12.1 10.3 4.386 0.173
15:08 1013 29.91 842 24.86 4 39.2 37 -9.4 15.1 4.538 0.179
15:09 1013 29.91 842 24.86 4.2 39.6 33 -10.8 12.6 4.719 0.186
15:10 1013 29.91 842 24.86 4.2 39.6 36 -9.6 14.7 4.736 0.186
15:11 1013 29.91 842 24.86 4.3 39.7 31 -11.4 11.5 4.793 0.189
15:12 1013 29.91 842 24.86 4.3 39.7 24 -14.5 6 4.736 0.186
15:13 1013 29.91 842 24.86 4.1 39.4 30 -12.1 10.2 4.583 0.18
15:14 1013 29.91 842 24.86 4.2 39.5 32 -11 12.1 4.6 0.181
15:15 1013 29.91 842 24.86 4.2 39.6 27 -13.2 8.2 4.696 0.185
15:16 1013 29.91 842 24.86 4.1 39.4 26 -13.7 7.4 4.611 0.182
15:17 1013 29.91 842 24.86 4 39.2 26 -13.8 7.2 4.504 0.177
15:18 1013 29.91 842 24.86 4 39.2 28 -12.8 9 4.504 0.177
15:19 1013 29.91 842 24.86 4.1 39.4 32 -11.1 12.1 4.588 0.181
15:20 1013 29.91 842 24.86 4.1 39.4 33 -10.9 12.4 4.645 0.183
15:21 1013 29.91 842 24.86 4.1 39.4 29 -12.4 9.6 4.628 0.182
15:22 1013 29.91 842 24.86 4.1 39.3 33 -10.8 12.5 4.526 0.178
15:23 1013 29.91 842 24.86 4 39.2 22 -16.2 2.9 4.469 0.176
15:24 1013 29.91 842 24.86 3.8 38.8 24 -15.2 4.7 4.254 0.167
15:25 1013 29.91 842 24.86 3.9 39.1 29 -12.6 9.2 4.396 0.173
15:26 1013 29.91 842 24.86 4.2 39.6 24 -14.6 5.7 4.656 0.183
15:27 1013 29.91 842 24.86 4.5 40 30 -11.8 10.7 4.882 0.192
15:28 1013 29.91 842 24.86 4.6 40.3 27 -12.8 9 5.04 0.198
15:29 1013 29.91 842 24.86 4.5 40.2 23 -14.9 5.3 5.007 0.197
15:30 1013 29.91 842 24.86 4.4 39.9 23 -14.8 5.4 4.91 0.193
15:31 1013 29.91 842 24.86 4.4 39.9 27 -13.2 8.2 4.842 0.191
15:32 1013 29.91 842 24.86 4.4 40 28 -12.7 9.2 4.967 0.196
15:33 1013 29.91 842 24.86 4.5 40.1 24 -14.7 5.6 4.972 0.196
15:34 1013 29.91 842 24.86 4.5 40.1 30 -11.6 11.2 4.95 0.195
15:35 1013 29.91 842 24.86 4.6 40.4 23 -15.1 4.9 5.159 0.203
15:36 1013 29.91 842 24.86 4.5 40.1 26 -13.3 8 5.023 0.198
15:37 1013 29.91 842 24.86 4.5 40 27 -13.2 8.3 5.001 0.197
15:38 1013 29.91 842 24.86 4.5 40.1 25 -13.9 7 5.001 0.197
15:39 1013 29.91 842 24.86 4.4 40 23 -15.2 4.7 4.922 0.194
15:40 1013 29.91 842 24.86 4.4 39.9 23 -15 4.9 4.876 0.192
15:41 1013 29.91 842 24.86 4.4 39.9 29 -12.2 10.1 4.859 0.191
15:42 1013 29.91 842 24.86 4.6 40.2 24 -14.3 6.2 5.04 0.198
15:43 1013 29.91 842 24.86 4.6 40.3 27 -12.8 9 5.052 0.199
15:44 1013 29.91 842 24.86 4.7 40.5 36 -9.2 15.4 5.176 0.204
15:45 1013 29.91 842 24.86 4.9 40.8 32 -10.4 13.4 5.38 0.212
15:46 1013 29.91 842 24.86 4.9 40.7 33 -10 14 5.323 0.21
15:47 1013 29.91 842 24.86 4.8 40.6 28 -12.3 9.9 5.272 0.208
15:48 1013 29.91 842 24.86 4.7 40.5 29 -12.1 10.2 5.216 0.205
15:49 1013 29.91 842 24.86 4.6 40.2 31 -11.4 11.5 5.035 0.198
15:50 1013 29.91 842 24.86 4.6 40.2 27 -12.7 9.1 5.029 0.198
15:51 1013 29.91 842 24.86 4.5 40.2 25 -13.8 7.2 5.035 0.198
15:52 1013 29.91 842 24.86 4.5 40.1 30 -11.8 10.8 4.995 0.197
15:53 1013 29.91 842 24.86 4.5 40.1 28 -12.5 9.5 4.978 0.196
15:54 1013 29.91 842 24.86 4.5 40.2 29 -11.9 10.6 5.006 0.197
15:55 1012 29.88 842 24.86 4.5 40.1 28 -12.4 9.6 5.006 0.197
15:56 1012 29.88 842 24.86 4.7 40.5 31 -11.1 12 5.159 0.203
15:57 1013 29.91 842 24.86 4.8 40.6 28 -12.1 10.3 5.227 0.206
15:58 1013 29.91 842 24.86 4.6 40.3 25 -13.9 7 5.051 0.199
15:59 1013 29.91 842 24.86 4.4 40 23 -15 5 4.955 0.195
16:00 1012 29.88 842 24.86 4.4 40 23 -15.3 4.5 4.887 0.192
16:01 1012 29.88 842 24.86 4.5 40.2 24 -14.2 6.4 5.035 0.198
16:02 1012 29.88 842 24.86 4.6 40.3 24 -14.2 6.5 5.142 0.202
16:03 1012 29.88 842 24.86 4.7 40.5 28 -12.3 9.9 5.266 0.207
16:04 1012 29.88 842 24.86 5 41 25 -13.3 8.1 5.493 0.216
16:05 1012 29.88 842 24.86 4.9 40.9 28 -12.2 10 5.464 0.215
16:06 1012 29.88 842 24.86 4.8 40.7 28 -12.4 9.6 5.317 0.209
16:07 1012 29.88 842 24.86 4.7 40.4 32 -10.8 12.5 5.148 0.203
16:08 1012 29.88 842 24.86 4.7 40.4 30 -11.3 11.6 5.165 0.203
16:09 1012 29.88 842 24.86 4.7 40.4 25 -13.9 7 5.165 0.203
16:10 1012 29.88 842 24.86 4.6 40.2 28 -12.5 9.5 5.034 0.198
16:11 1012 29.88 842 24.86 4.6 40.2 25 -13.7 7.4 5.051 0.199
16:12 1012 29.88 842 24.86 4.7 40.4 27 -12.8 9 5.153 0.203
16:13 1012 29.88 842 24.86 4.8 40.7 25 -13.6 7.5 5.306 0.209
16:14 1012 29.88 842 24.86 4.9 40.7 30 -11.3 11.6 5.351 0.211
16:15 1012 29.88 842 24.86 4.9 40.8 28 -12 10.5 5.408 0.213
16:16 1012 29.88 842 24.86 4.8 40.7 24 -14 6.7 5.357 0.211
16:17 1012 29.88 842 24.86 4.8 40.6 27 -12.8 8.9 5.278 0.208
16:18 1012 29.88 842 24.86 4.8 40.7 27 -12.6 9.3 5.3 0.209
16:19 1012 29.88 842 24.86 4.7 40.5 27 -12.7 9.2 5.187 0.204
16:20 1012 29.88 842 24.86 4.7 40.5 33 -10.2 13.6 5.255 0.207
16:21 1012 29.88 842 24.86 4.7 40.4 24 -14.2 6.5 5.198 0.205
16:22 1012 29.88 842 24.86 4.6 40.3 26 -13.1 8.4 5.125 0.202
16:23 1012 29.88 842 24.86 4.7 40.4 22 -15.6 4 5.176 0.204
16:24 1012 29.88 842 24.86 4.7 40.4 24 -14.5 6 5.153 0.203
16:25 1012 29.88 842 24.86 4.6 40.3 26 -13.5 7.7 5.198 0.205
16:26 1012 29.88 842 24.86 4.7 40.4 22 -15.2 4.7 5.176 0.204
16:27 1012 29.88 842 24.86 4.7 40.4 25 -14 6.8 5.21 0.205
16:28 1012 29.88 842 24.86 4.7 40.5 24 -14.4 6 5.244 0.206
16:29 1012 29.88 842 24.86 4.7 40.5 22 -15.6 4 5.289 0.208
16:30 1012 29.88 842 24.86 4.8 40.7 22 -15.4 4.4 5.357 0.211
16:31 1012 29.88 842 24.86 5 41 24 -14.2 6.4 5.549 0.218
16:32 1012 29.88 842 24.86 5.1 41.3 24 -13.7 7.3 5.713 0.225
16:33 1012 29.88 842 24.86 5.4 41.6 23 -14.3 6.2 5.934 0.234
16:34 1012 29.88 842 24.86 5.6 42 24 -13.7 7.4 6.109 0.241
16:35 1012 29.88 842 24.86 5.7 42.2 25 -13 8.5 6.369 0.251
16:36 1012 29.88 842 24.86 5.5 42 31 -10.3 13.4 6.25 0.246
16:37 1012 29.88 842 24.86 5.4 41.7 27 -12 10.4 6.064 0.239
16:38 1012 29.88 842 24.86 5.3 41.5 29 -11.3 11.6 5.877 0.231
16:39 1012 29.88 842 24.86 5.2 41.4 27 -12.5 9.6 5.838 0.23
16:40 1012 29.88 842 24.86 5.2 41.3 30 -11.2 11.8 5.713 0.225
16:41 1012 29.88 842 24.86 4.9 40.9 30 -11.4 11.6 5.442 0.214
16:42 1012 29.88 842 24.86 4.8 40.7 26 -13.1 8.5 5.346 0.21
16:43 1012 29.88 842 24.86 4.7 40.5 23 -14.9 5.2 5.227 0.206
16:44 1012 29.88 842 24.86 4.7 40.5 27 -13 8.7 5.198 0.205
16:45 1012 29.88 842 24.86 4.9 40.8 25 -13.5 7.7 5.402 0.213
16:46 1012 29.88 842 24.86 5.1 41.2 30 -11.3 11.7 5.572 0.219
16:47 1012 29.88 842 24.86 5.3 41.5 28 -12 10.5 5.804 0.229
16:48 1012 29.88 842 24.86 5.2 41.4 28 -12.1 10.2 5.679 0.224
16:49 1012 29.88 842 24.86 5 41 30 -11 12.1 5.487 0.216
16:50 1012 29.88 842 24.86 5.1 41.2 26 -12.8 8.9 5.543 0.218
16:51 1012 29.88 842 24.86 5.1 41.1 30 -11.2 11.9 5.51 0.217
16:52 1012 29.88 842 24.86 5 41 28 -12.1 10.2 5.498 0.216
16:53 1012 29.88 842 24.86 4.9 40.9 24 -14.2 6.4 5.362 0.211
16:54 1012 29.88 842 24.86 4.9 40.8 23 -14.6 5.7 5.272 0.208
16:55 1012 29.88 842 24.86 4.9 40.9 22 -15 5 5.232 0.206
16:56 1012 29.88 842 24.86 5.1 41.1 24 -14.1 6.7 5.312 0.209
16:57 1012 29.88 842 24.86 5.2 41.4 22 -14.8 5.3 5.436 0.214
16:58 1012 29.88 842 24.86 5.3 41.6 23 -14.1 6.7 5.47 0.215
16:59 1012 29.88 842 24.86 5.4 41.7 23 -14.2 6.5 5.634 0.222
17:00 1012 29.88 842 24.86 5.4 41.7 24 -13.9 7 5.696 0.224
17:01 1013 29.91 842 24.86 5.1 41.3 25 -13.1 8.4 5.577 0.22
17:02 1012 29.88 842 24.86 5.1 41.1 22 -14.9 5.1 5.504 0.217
17:03 1012 29.88 842 24.86 5.2 41.3 22 -15.1 4.8 5.481 0.216
17:04 1012 29.88 842 24.86 5.2 41.3 23 -14.6 5.7 5.402 0.213
17:05 1012 29.88 842 24.86 5.1 41.2 24 -13.9 7 5.504 0.217
17:06 1012 29.88 842 24.86 5.2 41.3 26 -12.7 9.2 5.674 0.223
17:07 1012 29.88 842 24.86 5.3 41.5 26 -12.6 9.3 5.826 0.229
17:08 1012 29.88 842 24.86 5.4 41.7 26 -12.7 9.1 5.86 0.231
17:09 1012 29.88 842 24.86 5.4 41.7 22 -14.5 5.9 5.888 0.232
17:10 1012 29.88 842 24.86 5.4 41.6 28 -11.7 11 5.809 0.229
17:11 1012 29.88 842 24.86 5.2 41.4 22 -14.6 5.7 5.702 0.224
17:12 1012 29.88 842 24.86 5 41.1 25 -13.3 8.1 5.521 0.217
17:13 1012 29.88 842 24.86 5 40.9 31 -10.9 12.4 5.391 0.212
17:14 1012 29.88 842 24.86 5 41 30 -11.2 11.8 5.47 0.215
17:15 1012 29.88 842 24.86 5.1 41.1 25 -13.3 8 5.527 0.218
17:16 1012 29.88 842 24.86 5.1 41.2 26 -13.1 8.4 5.538 0.218
17:17 1012 29.88 842 24.86 5.1 41.2 23 -14.6 5.7 5.543 0.218
17:18 1012 29.88 842 24.86 5 40.9 22 -15.1 4.8 5.419 0.213
17:19 1013 29.91 842 24.86 4.9 40.8 24 -14.2 6.4 5.317 0.209
17:20 1013 29.91 842 24.86 4.9 40.9 24 -14 6.8 5.385 0.212
17:21 1013 29.91 842 24.86 4.9 40.9 28 -12.3 9.8 5.385 0.212
17:22 1012 29.88 842 24.86 5 40.9 33 -10 14 5.453 0.215
17:23 1012 29.88 842 24.86 4.9 40.8 28 -12 10.5 5.447 0.214
17:24 1012 29.88 842 24.86 4.9 40.8 25 -13.5 7.7 5.391 0.212
17:25 1012 29.88 842 24.86 4.8 40.7 30 -11.5 11.2 5.34 0.21
17:26 1012 29.88 842 24.86 4.8 40.6 25 -13.9 6.9 5.255 0.207
17:27 1012 29.88 842 24.86 4.8 40.6 25 -13.8 7.2 5.272 0.208
17:28 1012 29.88 842 24.86 4.7 40.5 29 -12 10.4 5.21 0.205
17:29 1012 29.88 842 24.86 4.8 40.7 26 -13.3 8.1 5.323 0.21
17:30 1012 29.88 842 24.86 4.8 40.7 26 -13 8.5 5.346 0.21
17:31 1012 29.88 842 24.86 4.8 40.6 27 -12.6 9.4 5.317 0.209
17:32 1012 29.88 842 24.86 4.7 40.4 26 -13.2 8.2 5.17 0.204
17:33 1012 29.88 842 24.86 4.7 40.4 30 -11.4 11.6 5.17 0.204
17:34 1012 29.88 842 24.86 4.8 40.6 28 -12.4 9.7 5.255 0.207
17:35 1012 29.88 842 24.86 4.7 40.5 26 -13 8.5 5.227 0.206
17:36 1012 29.88 842 24.86 4.7 40.5 24 -14 6.7 5.215 0.205
17:37 1012 29.88 842 24.86 4.7 40.5 26 -13.2 8.3 5.232 0.206
17:38 1012 29.88 842 24.86 4.8 40.6 28 -12.3 9.9 5.362 0.211
17:39 1012 29.88 842 24.86 4.9 40.8 31 -10.9 12.4 5.368 0.211
17:40 1012 29.88 842 24.86 4.8 40.7 27 -12.6 9.4 5.306 0.209
17:41 1012 29.88 842 24.86 4.6 40.3 31 -10.9 12.3 5.091 0.2
17:42 1012 29.88 842 24.86 4.5 40 30 -11.6 11.2 4.904 0.193
17:43 1012 29.88 842 24.86 4.4 39.9 32 -10.9 12.4 4.854 0.191
17:44 1012 29.88 842 24.86 4.4 39.9 30 -11.7 10.9 4.887 0.192
17:45 1012 29.88 842 24.86 4.3 39.8 33 -10.5 13.2 4.842 0.191
17:46 1012 29.88 842 24.86 4.4 40 32 -10.8 12.5 4.893 0.193
17:47 1012 29.88 842 24.86 4.4 39.9 32 -10.8 12.5 4.876 0.192
17:48 1012 29.88 842 24.86 4.4 39.8 28 -12.5 9.4 4.814 0.19
17:49 1012 29.88 842 24.86 4.4 39.9 37 -9.1 15.6 4.848 0.191
17:50 1012 29.88 842 24.86 4.5 40 31 -11.2 11.9 4.904 0.193
17:51 1012 29.88 842 24.86 4.4 39.9 28 -12.6 9.3 4.842 0.191
17:52 1012 29.88 842 24.86 4.2 39.6 33 -10.5 13 4.701 0.185
17:53 1012 29.88 841 24.83 4.2 39.5 31 -11.5 11.2 4.576 0.18
17:54 1012 29.88 841 24.83 4.1 39.3 27 -13.5 7.7 4.458 0.176
17:55 1012 29.88 841 24.83 4 39.3 26 -14 6.9 4.424 0.174
17:56 1012 29.88 841 24.83 4 39.2 25 -14.3 6.2 4.429 0.174
17:57 1012 29.88 841 24.83 4.1 39.4 25 -14.4 6.2 4.503 0.177
17:58 1012 29.88 841 24.83 4.2 39.5 24 -14.9 5.2 4.588 0.181
17:59 1012 29.88 841 24.83 4.3 39.7 29 -12.2 10 4.695 0.185
18:00 1012 29.88 841 24.83 4.5 40 27 -13 8.5 4.893 0.193
18:01 1012 29.88 841 24.83 4.4 39.9 25 -13.9 7 4.825 0.19
18:02 1012 29.88 842 24.86 4.3 39.7 30 -12 10.3 4.723 0.186
18:03 1012 29.88 842 24.86 4.2 39.6 25 -14.2 6.5 4.689 0.185
18:04 1012 29.88 841 24.83 4.2 39.6 27 -13.4 7.9 4.678 0.184
18:05 1012 29.88 841 24.83 4.3 39.8 25 -14.2 6.4 4.746 0.187
18:06 1012 29.88 841 24.83 4.3 39.8 28 -12.6 9.3 4.786 0.188
18:07 1012 29.88 841 24.83 4.3 39.7 26 -13.6 7.5 4.78 0.188
18:08 1012 29.88 841 24.83 4.4 39.8 30 -11.7 10.9 4.803 0.189
18:09 1012 29.88 841 24.83 4.4 39.9 26 -13.5 7.6 4.848 0.191
18:10 1012 29.88 841 24.83 4.3 39.8 25 -14.2 6.5 4.808 0.189
18:11 1012 29.88 841 24.83 4.3 39.7 32 -10.8 12.5 4.808 0.189
18:12 1012 29.88 841 24.83 4.3 39.8 29 -12.3 9.9 4.842 0.191
18:13 1012 29.88 841 24.83 4.4 39.8 24 -14.7 5.5 4.825 0.19
18:14 1012 29.88 841 24.83 4.4 39.9 27 -13.2 8.3 4.876 0.192
18:15 1012 29.88 841 24.83 4.5 40.1 23 -15 5 4.955 0.195
18:16 1012 29.88 841 24.83 4.6 40.2 24 -14.5 5.9 5.018 0.198
18:17 1012 29.88 841 24.83 4.7 40.4 26 -13.2 8.3 5.182 0.204
18:18 1012 29.88 841 24.83 4.7 40.4 27 -12.9 8.8 5.165 0.203
18:19 1012 29.88 841 24.83 4.6 40.3 34 -10.1 13.9 5.074 0.2
18:20 1012 29.88 841 24.83 4.5 40.2 29 -12.2 10.1 5.04 0.198
18:21 1012 29.88 841 24.83 4.4 40 32 -10.8 12.5 4.904 0.193
18:22 1012 29.88 841 24.83 4.3 39.8 31 -11.3 11.6 4.837 0.19
18:23 1012 29.88 841 24.83 4.2 39.6 29 -12.3 9.8 4.712 0.186
18:24 1012 29.88 841 24.83 4.2 39.6 31 -11.4 11.4 4.712 0.186
18:25 1012 29.88 841 24.83 4.3 39.7 33 -10.7 12.8 4.763 0.188
18:26 1012 29.88 841 24.83 4.3 39.7 31 -11.6 11.2 4.729 0.186
18:27 1012 29.88 841 24.83 4.2 39.6 30 -11.8 10.8 4.673 0.184
18:28 1012 29.88 841 24.83 4.3 39.7 34 -10.3 13.4 4.74 0.187
18:29 1012 29.88 841 24.83 4.3 39.8 25 -14.2 6.5 4.786 0.188
18:30 1012 29.88 841 24.83 4.4 39.9 26 -13.5 7.7 4.791 0.189
18:31 1012 29.88 841 24.83 4.4 39.9 28 -12.6 9.3 4.814 0.19
18:32 1012 29.88 841 24.83 4.4 40 28 -12.7 9.2 4.916 0.194
18:33 1012 29.88 841 24.83 4.5 40.1 29 -12 10.5 4.944 0.195
18:34 1012 29.88 841 24.83 4.4 39.9 33 -10.6 12.9 4.876 0.192
18:35 1012 29.88 841 24.83 4.3 39.7 37 -9.3 15.2 4.752 0.187
18:36 1012 29.88 841 24.83 4.1 39.5 29 -12.4 9.6 4.61 0.181
18:37 1012 29.88 841 24.83 4 39.3 30 -11.8 10.7 4.514 0.178
18:38 1012 29.88 841 24.83 4 39.2 37 -9.5 14.9 4.475 0.176
18:39 1012 29.88 841 24.83 3.9 39.1 28 -12.9 8.7 4.395 0.173
18:40 1012 29.88 841 24.83 3.9 39 32 -11.4 11.5 4.334 0.171
18:41 1012 29.88 841 24.83 3.9 39 25 -14.3 6.3 4.289 0.169
18:42 1012 29.88 841 24.83 3.9 39 25 -14.4 6.2 4.278 0.168
18:43 1012 29.88 841 24.83 3.9 39.1 29 -12.8 9 4.341 0.171
18:44 1012 29.88 841 24.83 3.9 39.1 27 -13.4 8 4.359 0.172
18:45 1012 29.88 841 24.83 3.9 39 36 -10 13.9 4.392 0.173
18:46 1012 29.88 841 24.83 3.8 38.9 33 -11.1 12.1 4.348 0.171
18:47 1012 29.88 841 24.83 3.8 38.8 29 -12.5 9.5 4.246 0.167
18:48 1012 29.88 841 24.83 3.7 38.7 36 -10.2 13.6 4.162 0.164
18:49 1012 29.88 841 24.83 3.6 38.5 33 -11.1 12 4.111 0.162
18:50 1012 29.88 841 24.83 3.6 38.5 34 -10.8 12.6 4.049 0.159
18:51 1012 29.88 841 24.83 3.5 38.4 36 -10.2 13.6 4.01 0.158
18:52 1012 29.88 841 24.83 3.5 38.3 37 -9.9 14.2 3.937 0.155
18:53 1012 29.88 841 24.83 3.3 38 37 -9.9 14.3 3.848 0.151
18:54 1012 29.88 841 24.83 3.3 38 36 -10.4 13.2 3.757 0.148
18:55 1012 29.88 841 24.83 3.3 37.9 36 -10.5 13.2 3.719 0.146
18:56 1012 29.88 841 24.83 3.2 37.8 33 -11.6 11.1 3.68 0.145
18:57 1012 29.88 841 24.83 3.2 37.8 27 -13.9 7 3.623 0.143
18:58 1012 29.88 841 24.83 3.3 38 32 -11.8 10.7 3.743 0.147
18:59 1012 29.88 841 24.83 3.3 38 39 -9.4 15 3.834 0.151
19:00 1012 29.88 841 24.83 3.2 37.8 43 -8.1 17.5 3.743 0.147
19:01 1012 29.88 841 24.83 3 37.4 45 -7.8 17.9 3.557 0.14
19:02 1012 29.88 841 24.83 2.9 37.2 40 -9.4 15.1 3.371 0.133
19:03 1012 29.88 841 24.83 2.8 37.1 38 -10 13.9 3.275 0.129
19:04 1012 29.88 841 24.83 2.8 37.1 32 -12.3 9.8 3.236 0.127
19:05 1012 29.88 841 24.83 3 37.3 33 -11.7 10.9 3.332 0.131
19:06 1012 29.88 841 24.83 3.1 37.5 39 -9.6 14.7 3.445 0.136
19:07 1012 29.88 841 24.83 3.1 37.5 38 -9.9 14.2 3.491 0.137
19:08 1012 29.88 841 24.83 3 37.4 34 -11.5 11.3 3.406 0.134
19:09 1012 29.88 841 24.83 3 37.4 34 -11.3 11.6 3.423 0.135
19:10 1012 29.88 841 24.83 3 37.4 34 -11.5 11.3 3.452 0.136
19:11 1012 29.88 841 24.83 3 37.4 32 -12 10.4 3.43 0.135
19:12 1012 29.88 841 24.83 3 37.4 30 -13.1 8.5 3.362 0.132
19:13 1012 29.88 841 24.83 3 37.3 36 -10.5 13 3.373 0.133
19:14 1012 29.88 841 24.83 2.7 36.8 40 -9.7 14.6 3.153 0.124
19:15 1012 29.88 841 24.83 2.5 36.5 40 -9.9 14.2 2.938 0.116
19:16 1012 29.88 841 24.83 2.3 36.2 40 -9.9 14.1 2.751 0.108
19:17 1012 29.88 841 24.83 2.2 35.9 38 -10.8 12.6 2.627 0.103
19:18 1012 29.88 841 24.83 2.1 35.8 39 -10.4 13.4 2.486 0.098
19:19 1012 29.88 841 24.83 2 35.6 42 -9.6 14.6 2.418 0.095
19:20 1012 29.88 841 24.83 1.9 35.5 41 -10 14 2.384 0.094
19:21 1012 29.88 841 24.83 1.9 35.4 42 -9.8 14.3 2.311 0.091
19:22 1012 29.88 841 24.83 1.8 35.3 41 -10 14 2.22 0.087
19:23 1012 29.88 841 24.83 1.8 35.2 41 -10 14 2.186 0.086
19:24 1012 29.88 841 24.83 1.7 35 44 -9.4 15.1 2.096 0.083
19:25 1012 29.88 841 24.83 1.6 34.9 42 -10 14 1.994 0.079
19:26 1012 29.88 841 24.83 1.6 34.8 40 -10.8 12.6 1.949 0.077
19:27 1012 29.88 841 24.83 1.5 34.8 40 -10.8 12.6 1.938 0.076
19:28 1012 29.88 841 24.83 1.5 34.7 44 -9.5 14.9 1.909 0.075
19:29 1012 29.88 841 24.83 1.4 34.5 45 -9.3 15.3 1.808 0.071
19:30 1012 29.88 841 24.83 1.3 34.3 47 -8.8 16.2 1.689 0.066
19:31 1012 29.88 841 24.83 1 33.9 47 -8.9 15.9 1.502 0.059
19:32 1012 29.88 841 24.83 0.8 33.5 51 -8.2 17.2 1.31 0.052
19:33 1012 29.88 841 24.83 0.7 33.3 49 -8.7 16.4 1.197 0.047
19:34 1012 29.88 841 24.83 0.7 33.2 47 -9.4 15 1.084 0.043
19:35 1012 29.88 841 24.83 0.8 33.4 47 -9.3 15.3 1.123 0.044
19:36 1012 29.88 841 24.83 0.8 33.4 47 -9.3 15.3 1.123 0.044
19:37 1012 29.88 841 24.83 0.7 33.3 49 -8.9 16 1.106 0.044
19:38 1012 29.88 841 24.83 0.6 33 52 -8.1 17.4 1.01 0.04
19:39 1012 29.88 841 24.83 0.4 32.6 52 -8.3 17.1 .801 0.032
19:40 1012 29.88 841 24.83 0.2 32.4 50 -9 15.8 .642 0.025
19:41 1012 29.88 841 24.83 0.2 32.4 48 -9.4 15 .575 0.023
19:42 1012 29.88 841 24.83 0.2 32.3 49 -9.4 15.1 .541 0.021
19:43 1012 29.88 841 24.83 0 32 49 -9.3 15.2 .416 0.016
19:44 1012 29.88 841 24.83 0 32 49 -9.4 15.1 .416 0.016
19:45 1012 29.88 841 24.83 0.1 32.2 47 -9.8 14.4 .457 0.018
19:46 1012 29.88 841 24.83 0.2 32.3 50 -9.1 15.6 .514 0.02
19:47 1012 29.88 841 24.83 -0.1 31.9 52 -8.8 16.1 .344 0.014
19:48 1012 29.88 841 24.83 -0.2 31.7 47 -10.3 13.5 .243 0.01
19:49 1012 29.88 841 24.83 -0 31.9 47 -10 14 .396 0.016
19:50 1012 29.88 841 24.83 0 32.1 48 -9.8 14.4 .436 0.017
19:51 1012 29.88 841 24.83 0 32.1 53 -8.4 16.8 .448 0.018
19:52 1012 29.88 841 24.83 -0.1 31.8 54 -8.4 16.8 .329 0.013
19:53 1012 29.88 841 24.83 -0.3 31.4 56 -8.2 17.3 .103 0.004
19:54 1012 29.88 841 24.83 -0.5 31 52 -9.2 15.5 -.116 -0.005
19:55 1012 29.88 841 24.83 -0.6 30.9 52 -9.3 15.2 -.252 -0.01
19:56 1012 29.88 841 24.83 -0.7 30.8 51 -9.6 14.8 -.28 -0.011
19:57 1012 29.88 841 24.83 -0.6 30.9 52 -9.2 15.4 -.256 -0.01
19:58 1012 29.88 841 24.83 -0.6 30.9 52 -9.3 15.3 -.239 -0.009
19:59 1012 29.88 841 24.83 -0.4 31.2 49 -10 14 -.165 -0.006
20:00 1012 29.88 841 24.83 -0.2 31.6 48 -9.9 14.2 0 0
20:01 1012 29.88 841 24.83 -0.1 31.8 48 -9.8 14.3 .147 0.006
20:02 1012 29.88 841 24.83 0 32 47 -10 14 .227 0.009
20:03 1012 29.88 841 24.83 0 32.1 48 -9.7 14.5 .341 0.013
20:04 1012 29.88 841 24.83 0.1 32.1 49 -9.4 15.1 .364 0.014
20:05 1012 29.88 841 24.83 0 32.1 51 -9 15.9 .358 0.014
20:06 1012 29.88 841 24.83 0 32 54 -8.3 17 .336 0.013
20:07 1012 29.88 841 24.83 -0 32 50 -9.2 15.5 .347 0.014
20:08 1012 29.88 841 24.83 0.1 32.1 47 -9.9 14.1 .41 0.016
20:09 1012 29.88 841 24.83 0.2 32.4 47 -9.8 14.3 .552 0.022
20:10 1012 29.88 841 24.83 0.5 32.8 46 -10 14.1 .733 0.029
20:11 1012 29.88 841 24.83 0.6 33.1 44 -10.4 13.3 .903 0.036
20:12 1012 29.88 841 24.83 0.7 33.3 46 -9.7 14.6 .994 0.039
20:13 1012 29.88 841 24.83 0.7 33.3 46 -9.7 14.6 1.011 0.04
20:14 1012 29.88 841 24.83 0.8 33.4 46 -9.5 15 1.039 0.041
20:15 1012 29.88 841 24.83 0.7 33.2 46 -9.5 14.8 1.011 0.04
20:16 1012 29.88 841 24.83 0.6 33.1 48 -9.2 15.5 .989 0.039
20:17 1012 29.88 841 24.83 0.6 33 49 -8.9 16 .932 0.037
20:18 1012 29.88 841 24.83 0.5 32.9 46 -9.8 14.4 .814 0.032
20:19 1012 29.88 841 24.83 0.5 32.9 43 -10.6 13 .819 0.032
20:20 1012 29.88 841 24.83 0.6 33.1 48 -9.3 15.3 .853 0.034
20:21 1012 29.88 841 24.83 0.5 32.8 50 -8.8 16.1 .836 0.033
20:22 1012 29.88 841 24.83 0.3 32.6 50 -9 15.8 .678 0.027
20:23 1012 29.88 841 24.83 0.2 32.4 48 -9.4 15 .627 0.025
20:24 1012 29.88 841 24.83 0.3 32.5 47 -9.8 14.3 .627 0.025
20:25 1012 29.88 841 24.83 0.3 32.5 47 -9.7 14.5 .599 0.024
20:26 1012 29.88 841 24.83 0.3 32.5 48 -9.6 14.7 .623 0.025
20:27 1012 29.88 841 24.83 0.2 32.3 49 -9.3 15.3 .527 0.021
20:28 1012 29.88 841 24.83 0.1 32.2 45 -10.5 13.1 .448 0.018
20:29 1012 29.88 841 24.83 0.1 32.2 50 -9.1 15.6 .432 0.017
20:30 1012 29.88 841 24.83 -0.1 31.8 53 -8.5 16.6 .302 0.012
20:31 1012 29.88 841 24.83 -0.3 31.4 52 -9 15.9 .098 0.004
20:32 1012 29.88 841 24.83 -0.3 31.4 49 -9.7 14.5 .025 0.001
20:33 1012 29.88 841 24.83 -0.2 31.7 48 -9.8 14.3 .122 0.005
20:34 1012 29.88 841 24.83 0 32 47 -10.1 13.9 .246 0.01
20:35 1012 29.88 841 24.83 0.2 32.4 47 -10 14.1 .4 0.016
20:36 1012 29.88 841 24.83 0.2 32.4 46 -10 14 .456 0.018
20:37 1012 29.88 841 24.83 0.3 32.5 46 -10 14 .49 0.019
20:38 1012 29.88 841 24.83 0.2 32.4 46 -10 14 .497 0.02
20:39 1012 29.88 841 24.83 0.2 32.3 47 -9.8 14.4 .451 0.018
20:40 1012 29.88 841 24.83 0 32 50 -9.2 15.5 .338 0.013
20:41 1012 29.88 841 24.83 -0.3 31.6 49 -9.8 14.3 .09 0.004
20:42 1012 29.88 841 24.83 -0.3 31.4 50 -9.4 15 .01 0
20:43 1012 29.88 841 24.83 -0.6 30.8 54 -8.8 16.1 -.261 -0.01
20:44 1012 29.88 841 24.83 -0.9 30.3 56 -8.6 16.5 -.503 -0.02
20:45 1012 29.88 841 24.83 -1 30.2 52 -9.6 14.7 -.616 -0.024
20:46 1012 29.88 841 24.83 -0.9 30.3 51 -9.7 14.5 -.548 -0.022
20:47 1012 29.88 841 24.83 -0.8 30.5 50 -10.1 13.8 -.456 -0.018
20:48 1012 29.88 841 24.83 -0.7 30.7 49 -10.2 13.6 -.366 -0.014
20:49 1012 29.88 841 24.83 -0.6 30.9 53 -9.2 15.5 -.263 -0.01
20:50 1012 29.88 841 24.83 -0.8 30.5 54 -9 15.8 -.427 -0.017
20:51 1012 29.88 841 24.83 -1.1 30 54 -9.2 15.5 -.665 -0.026
20:52 1012 29.88 841 24.83 -1.3 29.7 55 -9.1 15.6 -.879 -0.035
20:53 1012 29.88 841 24.83 -1.5 29.4 56 -9.2 15.5 -1.06 -0.042
20:54 1012 29.88 841 24.83 -1.5 29.4 55 -9.4 15.1 -1.088 -0.043
20:55 1012 29.88 841 24.83 -1.5 29.4 56 -9.1 15.6 -1.088 -0.043
20:56 1012 29.88 841 24.83 -1.6 29.1 58 -8.8 16.2 -1.206 -0.047
20:57 1012 29.88 841 24.83 -1.8 28.8 57 -9.3 15.3 -1.32 -0.052
20:58 1012 29.88 841 24.83 -1.8 28.8 58 -9 15.8 -1.404 -0.055
20:59 1012 29.88 841 24.83 -1.9 28.6 55 -9.7 14.5 -1.512 -0.06
21:00 1012 29.88 841 24.83 -1.7 28.9 53 -10.2 13.7 -1.37 -0.054
21:01 1012 29.88 841 24.83 -1.4 29.5 49 -10.9 12.4 -1.081 -0.043
21:02 1012 29.88 841 24.83 -1.3 29.7 54 -9.4 15.1 -.894 -0.035
21:03 1012 29.88 841 24.83 -1.5 29.2 55 -9.5 14.9 -1.132 -0.045
21:04 1012 29.88 841 24.83 -1.7 29 53 -10.1 13.9 -1.301 -0.051
21:05 1012 29.88 841 24.83 -1.6 29.1 55 -9.6 14.7 -1.262 -0.05
21:06 1012 29.88 841 24.83 -1.8 28.8 56 -9.4 15 -1.403 -0.055
21:07 1012 29.88 841 24.83 -1.9 28.6 57 -9.4 15.2 -1.482 -0.058
21:08 1012 29.88 841 24.83 -1.9 28.6 54 -9.9 14.2 -1.55 -0.061
21:09 1012 29.88 841 24.83 -1.7 28.9 52 -10.3 13.4 -1.42 -0.056
21:10 1012 29.88 841 24.83 -1.7 28.9 53 -10.1 13.8 -1.357 -0.053
21:11 1012 29.88 841 24.83 -1.6 29.1 50 -10.7 12.7 -1.306 -0.051
21:12 1012 29.88 841 24.83 -1.4 29.4 52 -10.1 13.8 -1.125 -0.044
21:13 1012 29.88 841 24.83 -1.4 29.4 53 -9.7 14.5 -1.074 -0.042
21:14 1012 29.88 841 24.83 -1.7 29 56 -9.4 15.1 -1.289 -0.051
21:15 1012 29.88 841 24.83 -2 28.4 56 -9.6 14.8 -1.584 -0.062
21:16 1012 29.88 841 24.83 -2.1 28.1 55 -9.9 14.1 -1.714 -0.067
21:17 1012 29.88 841 24.83 -2.1 28.2 59 -9.2 15.5 -1.685 -0.066
21:18 1012 29.88 841 24.83 -2 28.4 48 -11.5 11.3 -1.657 -0.065
21:19 1012 29.88 841 24.83 -1.7 28.9 52 -10.3 13.4 -1.391 -0.055
21:20 1012 29.88 841 24.83 -1.5 29.2 50 -10.7 12.7 -1.204 -0.047
21:21 1012 29.88 841 24.83 -1.5 29.3 51 -10.3 13.5 -1.136 -0.045
21:22 1012 29.88 841 24.83 -1.5 29.3 53 -10 14.1 -1.17 -0.046
21:23 1012 29.88 841 24.83 -1.6 29.2 53 -9.9 14.1 -1.238 -0.049
21:24 1012 29.88 841 24.83 -1.7 28.9 55 -9.6 14.7 -1.374 -0.054
21:25 1012 29.88 841 24.83 -1.9 28.5 56 -9.6 14.8 -1.555 -0.061
21:26 1012 29.88 841 24.83 -2 28.4 56 -9.6 14.7 -1.64 -0.065
21:27 1012 29.88 841 24.83 -1.9 28.6 55 -9.9 14.3 -1.555 -0.061
21:28 1012 29.88 841 24.83 -1.9 28.6 55 -9.8 14.3 -1.611 -0.063
21:29 1012 29.88 841 24.83 -2 28.4 58 -9.1 15.5 -1.696 -0.067
21:30 1012 29.88 841 24.83 -2.3 27.9 59 -9.1 15.6 -1.894 -0.075
21:31 1012 29.88 841 24.83 -2.6 27.4 59 -9.4 15 -2.182 -0.086
21:32 1012 29.88 841 24.83 -2.6 27.3 61 -9.2 15.4 -2.255 -0.089
21:33 1012 29.88 841 24.83 -2.6 27.2 60 -9.4 15.1 -2.266 -0.089
21:34 1012 29.88 841 24.83 -2.6 27.3 58 -9.8 14.3 -2.254 -0.089
21:35 1012 29.88 841 24.83 -2.5 27.5 58 -9.6 14.6 -2.186 -0.086
21:36 1012 29.88 841 24.83 -2.5 27.5 60 -9.3 15.3 -2.192 -0.086
21:37 1012 29.88 841 24.83 -2.6 27.3 60 -9.3 15.2 -2.276 -0.09
21:38 1012 29.88 841 24.83 -2.6 27.3 62 -9 15.9 -2.242 -0.088
21:39 1012 29.88 841 24.83 -2.4 27.7 60 -9 15.7 -2.094 -0.082
21:40 1012 29.88 841 24.83 -2.1 28.2 58 -9.3 15.3 -1.816 -0.071
21:41 1012 29.88 841 24.83 -1.7 29 54 -9.8 14.4 -1.38 -0.054
21:42 1012 29.88 841 24.83 -1.3 29.6 56 -9 15.8 -1.09 -0.043
21:43 1012 29.88 841 24.83 -1.2 29.8 56 -8.8 16.1 -.914 -0.036
21:44 1012 29.88 841 24.83 -1.2 29.9 53 -9.7 14.6 -.829 -0.033
21:45 1012 29.88 841 24.83 -1 30.1 49 -10.5 13.1 -.709 -0.028
21:46 1012 29.88 841 24.83 -0.9 30.4 50 -10 14 -.544 -0.021
21:47 1012 29.88 841 24.83 -0.8 30.6 51 -9.6 14.7 -.476 -0.019
21:48 1012 29.88 841 24.83 -0.8 30.5 53 -9.2 15.5 -.481 -0.019
21:49 1012 29.88 841 24.83 -0.9 30.5 52 -9.4 15 -.543 -0.021
21:50 1012 29.88 841 24.83 -0.9 30.3 56 -8.5 16.6 -.611 -0.024
21:51 1012 29.88 841 24.83 -1.1 30 55 -9 15.7 -.741 -0.029
21:52 1012 29.88 841 24.83 -1.2 29.8 54 -9.4 15.1 -.843 -0.033
21:53 1012 29.88 841 24.83 -1.2 29.8 53 -9.7 14.5 -.82 -0.032
21:54 1012 29.88 841 24.83 -1.1 30.1 52 -9.6 14.7 -.65 -0.026
21:55 1012 29.88 841 24.83 -1 30.3 50 -10.1 13.8 -.576 -0.023
21:56 1012 29.88 841 24.83 -0.9 30.3 52 -9.7 14.6 -.542 -0.021
21:57 1012 29.88 841 24.83 -1 30.3 51 -9.9 14.2 -.604 -0.024
21:58 1012 29.88 841 24.83 -1 30.2 53 -9.3 15.2 -.638 -0.025
21:59 1012 29.88 841 24.83 -1.1 30 56 -8.7 16.3 -.694 -0.027
22:00 1012 29.88 841 24.83 -1.2 29.8 58 -8.4 16.8 -.807 -0.032
22:01 1012 29.88 841 24.83 -1.4 29.5 56 -9.1 15.6 -.988 -0.039
22:02 1012 29.88 841 24.83 -1.4 29.4 56 -9.2 15.4 -1.045 -0.041
22:03 1012 29.88 841 24.83 -1.5 29.3 54 -9.7 14.5 -1.022 -0.04
22:04 1012 29.88 841 24.83 -1.4 29.5 53 -9.8 14.3 -1.016 -0.04
22:05 1012 29.88 841 24.83 -1.3 29.6 54 -9.6 14.8 -.897 -0.035
22:06 1012 29.88 841 24.83 -1.3 29.6 56 -9 15.7 -.937 -0.037
22:07 1012 29.88 841 24.83 -1.4 29.4 58 -8.7 16.4 -1.044 -0.041
22:08 1012 29.88 841 24.83 -1.5 29.2 57 -9 15.7 -1.129 -0.044
22:09 1012 29.88 841 24.83 -1.6 29.2 55 -9.4 15.1 -1.123 -0.044
22:10 1012 29.88 841 24.83 -1.5 29.3 56 -9.2 15.4 -1.135 -0.045
22:11 1012 29.88 841 24.83 -1.5 29.3 55 -9.3 15.3 -1.101 -0.043
22:12 1012 29.88 841 24.83 -1.5 29.3 54 -9.7 14.6 -1.101 -0.043
22:13 1012 29.88 841 24.83 -1.5 29.4 56 -9.1 15.5 -1.016 -0.04
22:14 1012 29.88 841 24.83 -1.5 29.3 55 -9.4 15.1 -1.117 -0.044
22:15 1012 29.88 841 24.83 -1.5 29.4 53 -9.9 14.3 -1.078 -0.042
22:16 1012 29.88 841 24.83 -1.4 29.5 52 -10 14.1 -.942 -0.037
22:17 1012 29.88 841 24.83 -1.3 29.7 52 -9.9 14.1 -.891 -0.035
22:18 1012 29.88 841 24.83 -1.3 29.7 51 -10 14 -.817 -0.032
22:19 1012 29.88 841 24.83 -1.2 29.9 50 -10.3 13.4 -.755 -0.03
22:20 1012 29.88 841 24.83 -1.1 30 51 -10.1 13.9 -.664 -0.026
22:21 1012 29.88 841 24.83 -1.1 30.1 49 -10.6 12.9 -.647 -0.025
22:22 1012 29.88 841 24.83 -1 30.2 49 -10.4 13.4 -.573 -0.023
22:23 1012 29.88 841 24.83 -1 30.3 51 -9.8 14.4 -.551 -0.022
22:24 1012 29.88 841 24.83 -1 30.2 53 -9.4 15.1 -.596 -0.023
22:25 1012 29.88 841 24.83 -1.1 30 53 -9.4 15.1 -.692 -0.027
22:26 1012 29.88 841 24.83 -1.2 29.8 55 -9.2 15.5 -.828 -0.033
22:27 1012 29.88 841 24.83 -1.3 29.6 56 -9.1 15.7 -.953 -0.038
22:28 1012 29.88 841 24.83 -1.4 29.4 54 -9.6 14.7 -1.021 -0.04
22:29 1012 29.88 841 24.83 -1.4 29.4 52 -10 14 -1.026 -0.04
22:30 1012 29.88 841 24.83 -1.4 29.5 52 -10 14 -1.004 -0.04
22:31 1012 29.88 841 24.83 -1.4 29.5 53 -9.8 14.4 -.964 -0.038
22:32 1012 29.88 841 24.83 -1.4 29.5 56 -9.1 15.7 -1.004 -0.04
22:33 1012 29.88 841 24.83 -1.5 29.3 59 -8.5 16.7 -1.043 -0.041
22:34 1012 29.88 841 24.83 -1.6 29.1 60 -8.5 16.7 -1.208 -0.048
22:35 1012 29.88 841 24.83 -1.7 28.9 55 -9.6 14.8 -1.292 -0.051
22:36 1012 29.88 841 24.83 -1.6 29.1 56 -9.2 15.4 -1.247 -0.049
22:37 1012 29.88 841 24.83 -1.6 29.1 58 -8.8 16.1 -1.236 -0.049
22:38 1012 29.88 841 24.83 -1.6 29 57 -9.1 15.6 -1.258 -0.05
22:39 1012 29.88 841 24.83 -1.6 29 57 -9.2 15.5 -1.27 -0.05
22:40 1012 29.88 841 24.83 -1.6 29.1 55 -9.6 14.7 -1.202 -0.047
22:41 1012 29.88 841 24.83 -1.5 29.3 54 -9.7 14.5 -1.123 -0.044
22:42 1012 29.88 841 24.83 -1.4 29.4 58 -8.7 16.3 -1.072 -0.042
22:43 1012 29.88 841 24.83 -1.5 29.4 55 -9.3 15.3 -1.083 -0.043
22:44 1012 29.88 841 24.83 -1.5 29.3 58 -8.8 16.2 -1.123 -0.044
22:45 1012 29.88 841 24.83 -1.6 29.2 58 -8.9 16.1 -1.213 -0.048
22:46 1012 29.88 841 24.83 -1.6 29.2 56 -9.3 15.3 -1.23 -0.048
22:47 1012 29.88 841 24.83 -1.6 29.2 57 -9 15.8 -1.224 -0.048
22:48 1012 29.88 841 24.83 -1.6 29.1 55 -9.4 15.1 -1.224 -0.048
22:49 1012 29.88 841 24.83 -1.5 29.2 61 -8.2 17.2 -1.19 -0.047
22:50 1012 29.88 841 24.83 -1.6 29.1 59 -8.6 16.5 -1.287 -0.051
22:51 1012 29.88 841 24.83 -1.7 28.9 56 -9.4 15.1 -1.281 -0.05
22:52 1012 29.88 841 24.83 -1.6 29.2 55 -9.6 14.8 -1.173 -0.046
22:53 1012 29.88 841 24.83 -1.4 29.4 55 -9.4 15 -1.089 -0.043
22:54 1012 29.88 841 24.83 -1.5 29.3 55 -9.4 15 -1.089 -0.043
22:55 1012 29.88 841 24.83 -1.5 29.4 55 -9.3 15.3 -1.077 -0.042
22:56 1012 29.88 841 24.83 -1.5 29.3 56 -9.2 15.4 -1.105 -0.044
22:57 1012 29.88 841 24.83 -1.5 29.2 56 -9.2 15.4 -1.179 -0.046
22:58 1012 29.88 841 24.83 -1.6 29.2 55 -9.5 14.9 -1.207 -0.048
22:59 1012 29.88 841 24.83 -1.5 29.2 55 -9.4 15.1 -1.156 -0.046
23:00 1012 29.88 841 24.83 -1.5 29.3 55 -9.5 14.8 -1.128 -0.044
23:01 1012 29.88 841 24.83 -1.5 29.3 54 -9.7 14.6 -1.117 -0.044
23:02 1012 29.88 841 24.83 -1.5 29.4 55 -9.4 15 -1.072 -0.042
23:03 1012 29.88 841 24.83 -1.5 29.4 56 -9.1 15.6 -1.111 -0.044
23:04 1012 29.88 841 24.83 -1.5 29.3 55 -9.4 15 -1.105 -0.044
23:05 1012 29.88 841 24.83 -1.5 29.3 56 -9.2 15.4 -1.105 -0.044
23:06 1012 29.88 841 24.83 -1.5 29.3 58 -8.7 16.3 -1.134 -0.045
23:07 1012 29.88 841 24.83 -1.5 29.2 57 -8.9 15.9 -1.156 -0.046
23:08 1012 29.88 841 24.83 -1.6 29.2 57 -9.1 15.7 -1.23 -0.048
23:09 1012 29.88 841 24.83 -1.6 29.1 58 -8.8 16.2 -1.207 -0.048
23:10 1012 29.88 841 24.83 -1.6 29.1 60 -8.4 16.9 -1.27 -0.05
23:11 1012 29.88 841 24.83 -1.7 29 58 -8.8 16.1 -1.326 -0.052
23:12 1012 29.88 841 24.83 -1.7 29 58 -8.9 16 -1.292 -0.051
23:13 1012 29.88 841 24.83 -1.7 28.9 58 -8.8 16.1 -1.321 -0.052
23:14 1012 29.88 841 24.83 -1.7 29 57 -9.2 15.4 -1.287 -0.051
23:15 1012 29.88 841 24.83 -1.6 29 56 -9.2 15.4 -1.258 -0.05
23:16 1012 29.88 841 24.83 -1.5 29.3 54 -9.6 14.7 -1.162 -0.046
23:17 1012 29.88 841 24.83 -1.5 29.3 55 -9.3 15.3 -1.083 -0.043
23:18 1012 29.88 841 24.83 -1.5 29.3 59 -8.5 16.7 -1.083 -0.043
23:19 1011 29.85 841 24.83 -1.6 29.2 59 -8.7 16.4 -1.19 -0.047
23:20 1011 29.85 841 24.83 -1.7 29 58 -8.9 16.1 -1.247 -0.049
23:21 1011 29.85 841 24.83 -1.7 29 57 -9.1 15.6 -1.27 -0.05
23:22 1011 29.85 841 24.83 -1.6 29.1 55 -9.6 14.8 -1.213 -0.048
23:23 1011 29.85 841 24.83 -1.5 29.2 55 -9.3 15.2 -1.145 -0.045
23:24 1011 29.85 841 24.83 -1.5 29.2 55 -9.5 14.9 -1.139 -0.045
23:25 1011 29.85 841 24.83 -1.4 29.4 53 -9.8 14.4 -1.071 -0.042
23:26 1011 29.85 841 24.83 -1.4 29.5 54 -9.6 14.7 -1.038 -0.041
23:27 1011 29.85 841 24.83 -1.4 29.5 52 -10 13.9 -.958 -0.038
23:28 1011 29.85 841 24.83 -1.3 29.6 55 -9.4 15.2 -.947 -0.037
23:29 1011 29.85 840 24.81 -1.3 29.6 53 -9.7 14.5 -.97 -0.038
23:30 1011 29.85 840 24.81 -1.3 29.6 54 -9.5 14.9 -.941 -0.037
23:31 1011 29.85 840 24.81 -1.4 29.5 54 -9.4 15.1 -.987 -0.039
23:32 1011 29.85 840 24.81 -1.4 29.5 55 -9.4 15.1 -.998 -0.039
23:33 1011 29.85 840 24.81 -1.4 29.5 57 -9 15.9 -1.021 -0.04
23:34 1011 29.85 840 24.81 -1.4 29.4 55 -9.4 15.1 -1.049 -0.041
23:35 1011 29.85 840 24.81 -1.5 29.4 58 -8.7 16.3 -1.071 -0.042
23:36 1011 29.85 840 24.81 -1.5 29.2 60 -8.3 17.1 -1.134 -0.045
23:37 1011 29.85 840 24.81 -1.7 29 60 -8.5 16.7 -1.23 -0.048
23:38 1011 29.85 840 24.81 -1.7 28.9 58 -9 15.9 -1.292 -0.051
23:39 1011 29.85 840 24.81 -1.8 28.8 58 -9 15.8 -1.372 -0.054
23:40 1011 29.85 840 24.81 -1.8 28.8 56 -9.4 15 -1.343 -0.053
23:41 1011 29.85 840 24.81 -1.7 29 57 -9.1 15.7 -1.287 -0.051
23:42 1011 29.85 840 24.81 -1.6 29 60 -8.3 17 -1.253 -0.049
23:43 1011 29.85 840 24.81 -1.7 28.9 60 -8.6 16.6 -1.304 -0.051
23:44 1011 29.85 840 24.81 -1.8 28.8 61 -8.4 16.8 -1.377 -0.054
23:45 1011 29.85 840 24.81 -1.8 28.7 60 -8.6 16.5 -1.445 -0.057
23:46 1011 29.85 840 24.81 -1.9 28.6 60 -8.7 16.3 -1.508 -0.059
23:47 1011 29.85 840 24.81 -1.9 28.6 60 -8.7 16.4 -1.513 -0.06
23:48 1011 29.85 840 24.81 -1.9 28.6 59 -8.9 16 -1.525 -0.06
23:49 1011 29.85 840 24.81 -2 28.5 62 -8.2 17.2 -1.53 -0.06
23:50 1011 29.85 840 24.81 -2 28.4 62 -8.4 16.8 -1.587 -0.062
23:51 1011 29.85 840 24.81 -2 28.4 59 -9.1 15.7 -1.621 -0.064
23:52 1011 29.85 840 24.81 -2 28.5 59 -8.9 16.1 -1.587 -0.062
23:53 1011 29.85 840 24.81 -1.9 28.5 58 -9.2 15.5 -1.57 -0.062
23:54 1011 29.85 840 24.81 -1.9 28.6 57 -9.3 15.2 -1.536 -0.06
23:55 1011 29.85 840 24.81 -1.8 28.7 58 -9.1 15.7 -1.502 -0.059
23:56 1011 29.85 840 24.81 -1.9 28.6 60 -8.7 16.4 -1.474 -0.058
23:57 1011 29.85 840 24.81 -1.9 28.6 60 -8.7 16.3 -1.536 -0.06
23:58 1011 29.85 840 24.81 -2 28.3 59 -9.1 15.7 -1.621 -0.064
23:59 1011 29.85 840 24.81 -2.1 28.3 61 -8.7 16.4 -1.683 -0.066
24:00 1011 29.85 840 24.81 -2.1 28.2 60 -8.8 16.1 -1.706 -0.067